Time,TemperatureF,DewpointF,PressureIn,WindDirection,WindDirectionDegrees,WindSpeedMPH,WindSpeedGustMPH,Humidity,HourlyPrecipIn,Conditions,Clouds,dailyrainin,SoftwareType,DateUTC
2013-05-21 00:01:00,57.0,56.2,29.88,West,281,0.0,0.0,97,0.00,,,0.00,Wunderground v.1.15,2013-05-21 04:01:00,
2013-05-21 00:02:00,57.0,56.2,29.88,West,281,0.0,0.0,97,0.00,,,0.00,Wunderground v.1.15,2013-05-21 04:02:00,
2013-05-21 00:03:00,57.0,56.2,29.88,West,281,0.0,0.0,97,0.00,,,0.00,Wunderground v.1.15,2013-05-21 04:03:00,
2013-05-21 00:04:00,57.0,56.2,29.88,West,281,0.0,0.0,97,0.00,,,0.00,Wunderground v.1.15,2013-05-21 04:04:00,
2013-05-21 00:07:00,57.0,56.2,29.87,West,281,0.0,0.0,97,0.00,,,0.00,Wunderground v.1.15,2013-05-21 04:07:00,
2013-05-21 00:09:00,57.0,56.2,29.87,West,281,0.0,0.0,97,0.00,,,0.00,Wunderground v.1.15,2013-05-21 04:09:00,
2013-05-21 00:10:00,57.0,56.2,29.87,West,281,0.0,0.0,97,0.00,,,0.00,Wunderground v.1.15,2013-05-21 04:10:00,
2013-05-21 00:13:00,57.0,56.2,29.87,West,281,0.0,0.0,97,0.00,,,0.00,Wunderground v.1.15,2013-05-21 04:13:00,
2013-05-21 00:17:00,57.5,56.7,29.87,West,274,0.0,0.0,97,0.00,,,0.00,Wunderground v.1.15,2013-05-21 04:17:00,
2013-05-21 00:18:00,57.5,56.7,29.87,West,274,0.0,0.0,97,0.00,,,0.00,Wunderground v.1.15,2013-05-21 04:18:00,
2013-05-21 00:20:00,57.5,56.7,29.87,West,274,0.0,0.0,97,0.00,,,0.00,Wunderground v.1.15,2013-05-21 04:20:00,
2013-05-21 00:21:00,57.5,56.7,29.87,West,274,0.0,0.0,97,0.00,,,0.00,Wunderground v.1.15,2013-05-21 04:21:00,
2013-05-21 00:24:00,57.5,56.7,29.87,West,274,0.0,0.0,97,0.00,,,0.00,Wunderground v.1.15,2013-05-21 04:24:00,
2013-05-21 00:25:00,57.5,56.9,29.87,West,272,0.0,0.0,98,0.00,,,0.00,Wunderground v.1.15,2013-05-21 04:25:00,
2013-05-21 00:26:00,57.5,56.9,29.87,West,272,0.0,0.0,98,0.00,,,0.00,Wunderground v.1.15,2013-05-21 04:26:00,
2013-05-21 00:30:00,57.5,56.9,29.87,West,272,0.0,0.0,98,0.00,,,0.00,Wunderground v.1.15,2013-05-21 04:30:00,
2013-05-21 00:31:00,57.5,56.9,29.87,West,272,0.0,0.0,98,0.00,,,0.00,Wunderground v.1.15,2013-05-21 04:31:00,
2013-05-21 00:34:00,57.5,56.9,29.87,West,272,0.0,0.0,98,0.00,,,0.00,Wunderground v.1.15,2013-05-21 04:34:00,
2013-05-21 00:36:00,57.5,56.9,29.86,West,272,0.0,0.0,98,0.00,,,0.00,Wunderground v.1.15,2013-05-21 04:36:00,
2013-05-21 00:37:00,57.5,56.9,29.86,West,272,0.0,0.0,98,0.00,,,0.00,Wunderground v.1.15,2013-05-21 04:37:00,
2013-05-21 00:40:00,57.5,56.9,29.86,West,271,0.0,0.0,98,0.00,,,0.00,Wunderground v.1.15,2013-05-21 04:40:00,
2013-05-21 00:41:00,57.5,56.9,29.86,West,271,0.0,0.0,98,0.00,,,0.00,Wunderground v.1.15,2013-05-21 04:41:00,
2013-05-21 00:43:00,57.5,56.9,29.86,West,271,0.0,0.0,98,0.00,,,0.00,Wunderground v.1.15,2013-05-21 04:43:00,
2013-05-21 00:44:00,57.3,56.7,29.86,West,271,0.0,0.0,98,0.00,,,0.00,Wunderground v.1.15,2013-05-21 04:44:00,
2013-05-21 00:47:00,57.2,56.6,29.86,West,271,0.0,0.0,98,0.00,,,0.00,Wunderground v.1.15,2013-05-21 04:47:00,
2013-05-21 00:49:00,57.2,56.6,29.86,West,271,0.0,0.0,98,0.00,,,0.00,Wunderground v.1.15,2013-05-21 04:49:00,
2013-05-21 00:51:00,57.2,56.6,29.86,West,271,0.0,0.0,98,0.00,,,0.00,Wunderground v.1.15,2013-05-21 04:51:00,
2013-05-21 00:55:00,57.2,56.6,29.86,West,271,0.0,0.0,98,0.00,,,0.00,Wunderground v.1.15,2013-05-21 04:55:00,
2013-05-21 01:00:00,57.0,56.4,29.86,West,271,0.0,0.0,98,0.00,,,0.00,Wunderground v.1.15,2013-05-21 05:00:00,
2013-05-21 01:01:00,57.0,56.4,29.86,West,271,0.0,0.0,98,0.00,,,0.00,Wunderground v.1.15,2013-05-21 05:01:00,
2013-05-21 01:02:00,57.0,56.4,29.86,West,270,0.0,0.0,98,0.00,,,0.00,Wunderground v.1.15,2013-05-21 05:02:00,
2013-05-21 01:03:00,57.0,56.4,29.86,West,270,0.0,0.0,98,0.00,,,0.00,Wunderground v.1.15,2013-05-21 05:03:00,
2013-05-21 01:05:00,57.0,56.4,29.86,West,270,0.0,0.0,98,0.00,,,0.00,Wunderground v.1.15,2013-05-21 05:05:00,
2013-05-21 01:07:00,57.0,56.4,29.85,West,270,0.0,0.0,98,0.00,,,0.00,Wunderground v.1.15,2013-05-21 05:07:00,
2013-05-21 01:08:00,57.0,56.4,29.85,West,270,0.0,0.0,98,0.00,,,0.00,Wunderground v.1.15,2013-05-21 05:08:00,
2013-05-21 01:09:00,57.0,56.4,29.85,West,270,0.0,0.0,98,0.00,,,0.00,Wunderground v.1.15,2013-05-21 05:09:00,
2013-05-21 01:13:00,57.0,56.4,29.85,West,270,0.0,0.0,98,0.00,,,0.00,Wunderground v.1.15,2013-05-21 05:13:00,
2013-05-21 01:14:00,57.0,56.4,29.85,West,270,0.0,0.0,98,0.00,,,0.00,Wunderground v.1.15,2013-05-21 05:14:00,
2013-05-21 01:16:00,56.9,56.3,29.85,West,270,0.0,0.0,98,0.00,,,0.00,Wunderground v.1.15,2013-05-21 05:16:00,
2013-05-21 01:17:00,56.9,56.3,29.85,West,270,0.0,0.0,98,0.00,,,0.00,Wunderground v.1.15,2013-05-21 05:17:00,
2013-05-21 01:20:00,56.9,56.3,29.85,West,270,0.0,0.0,98,0.00,,,0.00,Wunderground v.1.15,2013-05-21 05:20:00,
2013-05-21 01:22:00,56.9,56.3,29.85,West,270,0.0,0.0,98,0.00,,,0.00,Wunderground v.1.15,2013-05-21 05:22:00,
2013-05-21 01:23:00,56.9,56.3,29.85,West,268,0.0,0.0,98,0.00,,,0.00,Wunderground v.1.15,2013-05-21 05:23:00,
2013-05-21 01:25:00,56.9,56.3,29.85,West,268,0.0,0.0,98,0.00,,,0.00,Wunderground v.1.15,2013-05-21 05:25:00,
2013-05-21 01:27:00,56.9,56.3,29.85,West,268,0.0,0.0,98,0.00,,,0.00,Wunderground v.1.15,2013-05-21 05:27:00,
2013-05-21 01:28:00,56.9,56.3,29.85,West,268,0.0,0.0,98,0.00,,,0.00,Wunderground v.1.15,2013-05-21 05:28:00,
2013-05-21 01:31:00,56.9,56.3,29.85,West,268,0.0,0.0,98,0.00,,,0.00,Wunderground v.1.15,2013-05-21 05:31:00,
2013-05-21 01:33:00,56.9,56.3,29.85,West,268,0.0,0.0,98,0.00,,,0.00,Wunderground v.1.15,2013-05-21 05:33:00,
2013-05-21 01:38:00,56.9,56.3,29.84,West,268,0.0,0.0,98,0.00,,,0.00,Wunderground v.1.15,2013-05-21 05:38:00,
2013-05-21 01:39:00,56.9,56.3,29.84,West,267,0.0,0.0,98,0.00,,,0.00,Wunderground v.1.15,2013-05-21 05:39:00,
2013-05-21 01:40:00,56.9,56.3,29.84,West,267,0.0,0.0,98,0.00,,,0.00,Wunderground v.1.15,2013-05-21 05:40:00,
2013-05-21 01:41:00,56.9,56.3,29.84,West,267,0.0,0.0,98,0.00,,,0.00,Wunderground v.1.15,2013-05-21 05:41:00,
2013-05-21 01:43:00,56.9,56.3,29.84,West,267,0.0,0.0,98,0.00,,,0.00,Wunderground v.1.15,2013-05-21 05:43:00,
2013-05-21 01:47:00,56.9,56.3,29.84,West,267,0.0,0.0,98,0.00,,,0.00,Wunderground v.1.15,2013-05-21 05:47:00,
2013-05-21 01:48:00,56.9,56.3,29.84,West,267,0.0,0.0,98,0.00,,,0.00,Wunderground v.1.15,2013-05-21 05:48:00,
2013-05-21 01:49:00,56.9,56.3,29.84,West,267,0.0,0.0,98,0.00,,,0.00,Wunderground v.1.15,2013-05-21 05:49:00,
2013-05-21 01:53:00,56.9,56.3,29.83,West,267,0.0,0.0,98,0.00,,,0.00,Wunderground v.1.15,2013-05-21 05:53:00,
2013-05-21 01:54:00,56.9,56.3,29.83,West,267,0.0,0.0,98,0.00,,,0.00,Wunderground v.1.15,2013-05-21 05:54:00,
2013-05-21 01:55:00,56.9,56.3,29.83,West,267,0.0,0.0,98,0.00,,,0.00,Wunderground v.1.15,2013-05-21 05:55:00,
2013-05-21 01:56:00,56.9,56.3,29.83,West,267,0.0,0.0,98,0.00,,,0.00,Wunderground v.1.15,2013-05-21 05:56:00,
2013-05-21 01:59:00,56.9,56.3,29.83,West,265,0.0,0.0,98,0.00,,,0.00,Wunderground v.1.15,2013-05-21 05:59:00,
2013-05-21 02:00:00,56.9,56.3,29.83,West,265,0.0,0.0,98,0.00,,,0.00,Wunderground v.1.15,2013-05-21 06:00:00,
2013-05-21 02:01:00,56.9,56.3,29.83,West,265,0.0,0.0,98,0.00,,,0.00,Wunderground v.1.15,2013-05-21 06:01:00,
2013-05-21 02:02:00,56.9,56.3,29.83,West,267,0.0,0.0,98,0.00,,,0.00,Wunderground v.1.15,2013-05-21 06:02:00,
2013-05-21 02:04:00,56.9,56.3,29.83,West,267,0.0,0.0,98,0.00,,,0.00,Wunderground v.1.15,2013-05-21 06:04:00,
2013-05-21 02:05:00,57.0,56.4,29.83,West,267,0.0,0.0,98,0.00,,,0.00,Wunderground v.1.15,2013-05-21 06:05:00,
2013-05-21 02:06:00,57.0,56.4,29.83,West,267,0.0,0.0,98,0.00,,,0.00,Wunderground v.1.15,2013-05-21 06:06:00,
2013-05-21 02:07:00,57.0,56.4,29.83,West,265,0.0,0.0,98,0.00,,,0.00,Wunderground v.1.15,2013-05-21 06:07:00,
2013-05-21 02:10:00,57.0,56.4,29.83,West,265,0.0,0.0,98,0.00,,,0.00,Wunderground v.1.15,2013-05-21 06:10:00,
2013-05-21 02:12:00,57.2,56.6,29.83,West,265,0.0,0.0,98,0.00,,,0.00,Wunderground v.1.15,2013-05-21 06:12:00,
2013-05-21 02:15:00,57.2,56.6,29.83,West,265,0.0,0.0,98,0.00,,,0.00,Wunderground v.1.15,2013-05-21 06:15:00,
2013-05-21 02:16:00,57.2,56.6,29.83,West,265,0.0,0.0,98,0.00,,,0.00,Wunderground v.1.15,2013-05-21 06:16:00,
2013-05-21 02:17:00,57.2,56.6,29.83,West,265,0.0,0.0,98,0.00,,,0.00,Wunderground v.1.15,2013-05-21 06:17:00,
2013-05-21 02:18:00,57.3,56.7,29.83,West,265,0.0,0.0,98,0.00,,,0.00,Wunderground v.1.15,2013-05-21 06:18:00,
2013-05-21 02:21:00,57.3,56.7,29.83,West,265,0.0,0.0,98,0.00,,,0.00,Wunderground v.1.15,2013-05-21 06:21:00,
2013-05-21 02:22:00,57.3,56.7,29.83,West,265,0.0,0.0,98,0.00,,,0.00,Wunderground v.1.15,2013-05-21 06:22:00,
2013-05-21 02:23:00,57.3,56.7,29.83,West,265,0.0,0.0,98,0.00,,,0.00,Wunderground v.1.15,2013-05-21 06:23:00,
2013-05-21 02:24:00,57.3,56.7,29.83,West,265,0.0,0.0,98,0.00,,,0.00,Wunderground v.1.15,2013-05-21 06:24:00,
2013-05-21 02:27:00,57.3,56.7,29.83,West,264,0.0,0.0,98,0.00,,,0.00,Wunderground v.1.15,2013-05-21 06:27:00,
2013-05-21 02:28:00,57.3,56.7,29.83,West,264,0.0,0.0,98,0.00,,,0.00,Wunderground v.1.15,2013-05-21 06:28:00,
2013-05-21 02:29:00,57.3,56.7,29.83,West,264,0.0,0.0,98,0.00,,,0.00,Wunderground v.1.15,2013-05-21 06:29:00,
2013-05-21 02:31:00,57.3,56.7,29.83,West,264,0.0,0.0,98,0.00,,,0.00,Wunderground v.1.15,2013-05-21 06:31:00,
2013-05-21 02:33:00,57.5,56.9,29.83,West,264,0.0,0.0,98,0.00,,,0.00,Wunderground v.1.15,2013-05-21 06:33:00,
2013-05-21 02:34:00,57.5,56.9,29.83,West,264,0.0,0.0,98,0.00,,,0.00,Wunderground v.1.15,2013-05-21 06:34:00,
2013-05-21 02:36:00,57.5,56.9,29.82,West,264,0.0,0.0,98,0.00,,,0.00,Wunderground v.1.15,2013-05-21 06:36:00,
2013-05-21 02:39:00,57.6,57.0,29.82,West,264,0.0,0.0,98,0.00,,,0.00,Wunderground v.1.15,2013-05-21 06:39:00,
2013-05-21 02:40:00,57.6,57.0,29.82,West,264,0.0,0.0,98,0.00,,,0.00,Wunderground v.1.15,2013-05-21 06:40:00,
2013-05-21 02:41:00,57.6,57.0,29.82,West,263,0.0,0.0,98,0.00,,,0.00,Wunderground v.1.15,2013-05-21 06:41:00,
2013-05-21 02:44:00,57.6,57.0,29.82,West,263,0.0,0.0,98,0.00,,,0.00,Wunderground v.1.15,2013-05-21 06:44:00,
2013-05-21 02:46:00,57.5,56.9,29.82,West,263,0.0,0.0,98,0.00,,,0.00,Wunderground v.1.15,2013-05-21 06:46:00,
2013-05-21 02:47:00,57.5,56.9,29.82,West,263,0.0,0.0,98,0.00,,,0.00,Wunderground v.1.15,2013-05-21 06:47:00,
2013-05-21 02:48:00,57.5,56.9,29.82,West,264,0.0,0.0,98,0.00,,,0.00,Wunderground v.1.15,2013-05-21 06:48:00,
2013-05-21 02:50:00,57.3,56.7,29.82,West,263,0.0,0.0,98,0.00,,,0.00,Wunderground v.1.15,2013-05-21 06:50:00,
2013-05-21 02:51:00,57.2,56.6,29.82,West,263,0.0,1.0,98,0.00,,,0.00,Wunderground v.1.15,2013-05-21 06:51:00,
2013-05-21 02:52:00,57.2,56.6,29.82,West,263,0.0,1.0,98,0.00,,,0.00,Wunderground v.1.15,2013-05-21 06:52:00,
2013-05-21 02:53:00,57.2,56.6,29.82,West,263,0.0,1.0,98,0.00,,,0.00,Wunderground v.1.15,2013-05-21 06:53:00,
2013-05-21 02:55:00,57.0,56.4,29.82,West,263,0.0,1.0,98,0.00,,,0.00,Wunderground v.1.15,2013-05-21 06:55:00,
2013-05-21 02:57:00,57.0,56.4,29.82,West,263,0.0,1.0,98,0.00,,,0.00,Wunderground v.1.15,2013-05-21 06:57:00,
2013-05-21 02:58:00,57.0,56.4,29.82,West,263,0.0,1.0,98,0.00,,,0.00,Wunderground v.1.15,2013-05-21 06:58:00,
2013-05-21 03:01:00,57.0,56.4,29.82,West,263,0.0,0.0,98,0.00,,,0.00,Wunderground v.1.15,2013-05-21 07:01:00,
2013-05-21 03:02:00,56.9,56.3,29.82,West,263,0.0,0.0,98,0.00,,,0.00,Wunderground v.1.15,2013-05-21 07:02:00,
2013-05-21 03:03:00,56.9,56.3,29.82,West,263,0.0,0.0,98,0.00,,,0.00,Wunderground v.1.15,2013-05-21 07:03:00,
2013-05-21 03:04:00,56.9,56.3,29.82,West,263,0.0,0.0,98,0.00,,,0.00,Wunderground v.1.15,2013-05-21 07:04:00,
2013-05-21 03:06:00,56.9,56.3,29.81,West,263,0.0,0.0,98,0.00,,,0.00,Wunderground v.1.15,2013-05-21 07:06:00,
2013-05-21 03:08:00,56.5,55.9,29.81,West,263,0.0,0.0,98,0.00,,,0.00,Wunderground v.1.15,2013-05-21 07:08:00,
2013-05-21 03:09:00,56.5,55.9,29.81,West,263,0.0,0.0,98,0.00,,,0.00,Wunderground v.1.15,2013-05-21 07:09:00,
2013-05-21 03:10:00,56.5,55.9,29.81,West,263,0.0,0.0,98,0.00,,,0.00,Wunderground v.1.15,2013-05-21 07:10:00,
2013-05-21 03:12:00,56.2,55.6,29.81,West,263,0.0,0.0,98,0.00,,,0.00,Wunderground v.1.15,2013-05-21 07:12:00,
2013-05-21 03:14:00,56.0,55.4,29.81,West,263,0.0,0.0,98,0.00,,,0.00,Wunderground v.1.15,2013-05-21 07:14:00,
2013-05-21 03:15:00,56.0,55.4,29.81,West,263,0.0,0.0,98,0.00,,,0.00,Wunderground v.1.15,2013-05-21 07:15:00,
2013-05-21 03:17:00,56.0,55.4,29.81,West,263,0.0,0.0,98,0.00,,,0.00,Wunderground v.1.15,2013-05-21 07:17:00,
2013-05-21 03:19:00,56.0,55.4,29.81,West,263,0.0,0.0,98,0.00,,,0.00,Wunderground v.1.15,2013-05-21 07:19:00,
2013-05-21 03:20:00,55.7,55.1,29.81,West,263,0.0,0.0,98,0.00,,,0.00,Wunderground v.1.15,2013-05-21 07:20:00,
2013-05-21 03:21:00,55.7,55.1,29.81,West,263,0.0,0.0,98,0.00,,,0.00,Wunderground v.1.15,2013-05-21 07:21:00,
2013-05-21 03:24:00,55.7,55.1,29.81,West,263,0.0,0.0,98,0.00,,,0.00,Wunderground v.1.15,2013-05-21 07:24:00,
2013-05-21 03:25:00,55.7,55.1,29.81,West,263,0.0,0.0,98,0.00,,,0.00,Wunderground v.1.15,2013-05-21 07:25:00,
2013-05-21 03:26:00,55.7,55.1,29.81,West,263,0.0,0.0,98,0.00,,,0.00,Wunderground v.1.15,2013-05-21 07:26:00,
2013-05-21 03:27:00,55.7,55.1,29.81,West,263,0.0,0.0,98,0.00,,,0.00,Wunderground v.1.15,2013-05-21 07:27:00,
2013-05-21 03:30:00,55.7,55.1,29.81,West,263,0.0,0.0,98,0.00,,,0.00,Wunderground v.1.15,2013-05-21 07:30:00,
2013-05-21 03:31:00,55.7,55.1,29.81,West,263,0.0,0.0,98,0.00,,,0.00,Wunderground v.1.15,2013-05-21 07:31:00,
2013-05-21 03:33:00,55.7,55.1,29.81,West,263,0.0,0.0,98,0.00,,,0.00,Wunderground v.1.15,2013-05-21 07:33:00,
2013-05-21 03:35:00,55.7,55.1,29.81,West,263,0.0,0.0,98,0.00,,,0.00,Wunderground v.1.15,2013-05-21 07:35:00,
2013-05-21 03:36:00,55.7,55.1,29.81,West,263,0.0,0.0,98,0.00,,,0.00,Wunderground v.1.15,2013-05-21 07:36:00,
2013-05-21 03:39:00,55.7,55.1,29.81,West,263,0.0,0.0,98,0.00,,,0.00,Wunderground v.1.15,2013-05-21 07:39:00,
2013-05-21 03:40:00,55.7,55.1,29.81,West,263,0.0,0.0,98,0.00,,,0.00,Wunderground v.1.15,2013-05-21 07:40:00,
2013-05-21 03:41:00,55.7,55.1,29.81,West,263,0.0,0.0,98,0.00,,,0.00,Wunderground v.1.15,2013-05-21 07:41:00,
2013-05-21 03:44:00,55.6,55.0,29.81,West,263,0.0,0.0,98,0.00,,,0.00,Wunderground v.1.15,2013-05-21 07:44:00,
2013-05-21 03:45:00,55.6,55.0,29.81,West,263,0.0,0.0,98,0.00,,,0.00,Wunderground v.1.15,2013-05-21 07:45:00,
2013-05-21 03:46:00,55.6,55.0,29.81,West,263,0.0,0.0,98,0.00,,,0.00,Wunderground v.1.15,2013-05-21 07:46:00,
2013-05-21 03:50:00,55.6,55.0,29.81,West,261,0.0,0.0,98,0.00,,,0.00,Wunderground v.1.15,2013-05-21 07:50:00,
2013-05-21 03:51:00,55.6,55.0,29.81,West,261,0.0,0.0,98,0.00,,,0.00,Wunderground v.1.15,2013-05-21 07:51:00,
2013-05-21 03:55:00,55.6,55.0,29.81,West,261,0.0,0.0,98,0.00,,,0.00,Wunderground v.1.15,2013-05-21 07:55:00,
2013-05-21 03:56:00,55.6,55.0,29.81,West,261,0.0,0.0,98,0.00,,,0.00,Wunderground v.1.15,2013-05-21 07:56:00,
2013-05-21 03:58:00,55.6,55.0,29.81,West,261,0.0,0.0,98,0.00,,,0.00,Wunderground v.1.15,2013-05-21 07:58:00,
2013-05-21 04:01:00,55.6,55.0,29.81,West,261,0.0,0.0,98,0.00,,,0.00,Wunderground v.1.15,2013-05-21 08:01:00,
2013-05-21 04:02:00,55.6,55.0,29.81,West,261,0.0,0.0,98,0.00,,,0.00,Wunderground v.1.15,2013-05-21 08:02:00,
2013-05-21 04:03:00,55.9,55.3,29.81,West,261,0.0,0.0,98,0.00,,,0.00,Wunderground v.1.15,2013-05-21 08:03:00,
2013-05-21 04:06:00,55.9,55.3,29.80,West,261,0.0,0.0,98,0.00,,,0.00,Wunderground v.1.15,2013-05-21 08:06:00,
2013-05-21 04:07:00,55.9,55.3,29.80,West,261,0.0,0.0,98,0.00,,,0.00,Wunderground v.1.15,2013-05-21 08:07:00,
2013-05-21 04:08:00,55.9,55.3,29.80,West,261,0.0,0.0,98,0.00,,,0.00,Wunderground v.1.15,2013-05-21 08:08:00,
2013-05-21 04:09:00,55.9,55.3,29.80,West,261,0.0,0.0,98,0.00,,,0.00,Wunderground v.1.15,2013-05-21 08:09:00,
2013-05-21 04:11:00,55.9,55.3,29.80,West,260,0.0,0.0,98,0.00,,,0.00,Wunderground v.1.15,2013-05-21 08:11:00,
2013-05-21 04:12:00,55.9,55.3,29.80,West,260,0.0,0.0,98,0.00,,,0.00,Wunderground v.1.15,2013-05-21 08:12:00,
2013-05-21 04:13:00,55.9,55.3,29.80,West,260,0.0,0.0,98,0.00,,,0.00,Wunderground v.1.15,2013-05-21 08:13:00,
2013-05-21 04:14:00,55.9,55.3,29.80,West,260,0.0,0.0,98,0.00,,,0.00,Wunderground v.1.15,2013-05-21 08:14:00,
2013-05-21 04:16:00,55.9,55.3,29.80,West,260,0.0,0.0,98,0.00,,,0.00,Wunderground v.1.15,2013-05-21 08:16:00,
2013-05-21 04:19:00,56.0,55.4,29.80,West,260,0.0,0.0,98,0.00,,,0.00,Wunderground v.1.15,2013-05-21 08:19:00,
2013-05-21 04:22:00,56.0,55.4,29.80,West,260,0.0,0.0,98,0.00,,,0.00,Wunderground v.1.15,2013-05-21 08:22:00,
2013-05-21 04:24:00,56.0,55.4,29.80,West,260,0.0,0.0,98,0.00,,,0.00,Wunderground v.1.15,2013-05-21 08:24:00,
2013-05-21 04:25:00,56.0,55.4,29.80,West,260,0.0,0.0,98,0.00,,,0.00,Wunderground v.1.15,2013-05-21 08:25:00,
2013-05-21 04:28:00,56.0,55.4,29.80,West,260,0.0,0.0,98,0.00,,,0.00,Wunderground v.1.15,2013-05-21 08:28:00,
2013-05-21 04:29:00,56.0,55.4,29.80,West,260,0.0,0.0,98,0.00,,,0.00,Wunderground v.1.15,2013-05-21 08:29:00,
2013-05-21 04:30:00,56.0,55.4,29.80,West,260,0.0,0.0,98,0.00,,,0.00,Wunderground v.1.15,2013-05-21 08:30:00,
2013-05-21 04:35:00,56.0,55.4,29.80,West,260,0.0,0.0,98,0.00,,,0.00,Wunderground v.1.15,2013-05-21 08:35:00,
2013-05-21 04:37:00,56.0,55.4,29.79,WSW,258,0.0,0.0,98,0.00,,,0.00,Wunderground v.1.15,2013-05-21 08:37:00,
2013-05-21 04:40:00,56.0,55.4,29.79,WSW,258,0.0,0.0,98,0.00,,,0.00,Wunderground v.1.15,2013-05-21 08:40:00,
2013-05-21 04:42:00,56.0,55.4,29.79,WSW,258,0.0,0.0,98,0.00,,,0.00,Wunderground v.1.15,2013-05-21 08:42:00,
2013-05-21 04:43:00,56.0,55.4,29.79,WSW,258,0.0,0.0,98,0.00,,,0.00,Wunderground v.1.15,2013-05-21 08:43:00,
2013-05-21 04:45:00,56.0,55.4,29.79,WSW,258,0.0,0.0,98,0.00,,,0.00,Wunderground v.1.15,2013-05-21 08:45:00,
2013-05-21 04:48:00,56.0,55.4,29.79,WSW,258,0.0,0.0,98,0.00,,,0.00,Wunderground v.1.15,2013-05-21 08:48:00,
2013-05-21 04:50:00,56.0,55.4,29.79,WSW,258,0.0,0.0,98,0.00,,,0.00,Wunderground v.1.15,2013-05-21 08:50:00,
2013-05-21 04:51:00,56.0,55.4,29.78,WSW,258,0.0,0.0,98,0.00,,,0.00,Wunderground v.1.15,2013-05-21 08:51:00,
2013-05-21 04:53:00,56.0,55.4,29.78,WSW,258,0.0,0.0,98,0.00,,,0.00,Wunderground v.1.15,2013-05-21 08:53:00,
2013-05-21 04:54:00,56.0,55.4,29.78,WSW,258,0.0,0.0,98,0.00,,,0.00,Wunderground v.1.15,2013-05-21 08:54:00,
2013-05-21 04:55:00,56.0,55.4,29.78,WSW,258,0.0,0.0,98,0.00,,,0.00,Wunderground v.1.15,2013-05-21 08:55:00,
2013-05-21 04:56:00,56.0,55.4,29.78,WSW,258,0.0,0.0,98,0.00,,,0.00,Wunderground v.1.15,2013-05-21 08:56:00,
2013-05-21 04:58:00,56.0,55.4,29.78,WSW,258,0.0,0.0,98,0.00,,,0.00,Wunderground v.1.15,2013-05-21 08:58:00,
2013-05-21 04:59:00,56.0,55.4,29.78,WSW,258,0.0,0.0,98,0.00,,,0.00,Wunderground v.1.15,2013-05-21 08:59:00,
2013-05-21 05:00:00,56.0,55.4,29.78,WSW,258,0.0,0.0,98,0.00,,,0.00,Wunderground v.1.15,2013-05-21 09:00:00,
2013-05-21 05:01:00,56.0,55.4,29.78,WSW,258,0.0,0.0,98,0.00,,,0.00,Wunderground v.1.15,2013-05-21 09:01:00,
2013-05-21 05:04:00,56.0,55.4,29.78,WSW,258,0.0,0.0,98,0.00,,,0.00,Wunderground v.1.15,2013-05-21 09:04:00,
2013-05-21 05:05:00,56.0,55.4,29.78,WSW,258,0.0,0.0,98,0.00,,,0.00,Wunderground v.1.15,2013-05-21 09:05:00,
2013-05-21 05:07:00,56.0,55.4,29.78,WSW,258,0.0,0.0,98,0.00,,,0.00,Wunderground v.1.15,2013-05-21 09:07:00,
2013-05-21 05:08:00,56.0,55.4,29.78,WSW,258,0.0,0.0,98,0.00,,,0.00,Wunderground v.1.15,2013-05-21 09:08:00,
2013-05-21 05:09:00,56.0,55.4,29.78,WSW,258,0.0,0.0,98,0.00,,,0.00,Wunderground v.1.15,2013-05-21 09:09:00,
2013-05-21 05:10:00,56.0,55.4,29.78,WSW,258,0.0,0.0,98,0.00,,,0.00,Wunderground v.1.15,2013-05-21 09:10:00,
2013-05-21 05:11:00,56.0,55.4,29.78,WSW,258,0.0,0.0,98,0.00,,,0.00,Wunderground v.1.15,2013-05-21 09:11:00,
2013-05-21 05:13:00,56.0,55.4,29.78,WSW,258,0.0,0.0,98,0.00,,,0.00,Wunderground v.1.15,2013-05-21 09:13:00,
2013-05-21 05:14:00,56.0,55.4,29.78,WSW,258,0.0,0.0,98,0.00,,,0.00,Wunderground v.1.15,2013-05-21 09:14:00,
2013-05-21 05:16:00,56.0,55.4,29.78,WSW,258,0.0,0.0,98,0.00,,,0.00,Wunderground v.1.15,2013-05-21 09:16:00,
2013-05-21 05:18:00,56.0,55.4,29.78,WSW,258,0.0,0.0,98,0.00,,,0.00,Wunderground v.1.15,2013-05-21 09:18:00,
2013-05-21 05:19:00,56.0,55.4,29.78,WSW,258,0.0,0.0,98,0.00,,,0.00,Wunderground v.1.15,2013-05-21 09:19:00,
2013-05-21 05:20:00,56.0,55.4,29.78,WSW,258,0.0,0.0,98,0.00,,,0.00,Wunderground v.1.15,2013-05-21 09:20:00,
2013-05-21 05:23:00,56.9,56.3,29.76,North,0,1.0,2.0,98,0.00,,,0.00,Wunderground v.1.15,2013-05-21 09:23:00,
2013-05-21 05:24:00,56.9,56.3,29.76,North,0,1.0,2.0,98,0.00,,,0.00,Wunderground v.1.15,2013-05-21 09:24:00,
2013-05-21 05:25:00,56.9,56.3,29.76,North,0,1.0,2.0,98,0.00,,,0.00,Wunderground v.1.15,2013-05-21 09:25:00,
2013-05-21 05:26:00,56.9,56.3,29.76,North,0,1.0,2.0,98,0.00,,,0.00,Wunderground v.1.15,2013-05-21 09:26:00,
2013-05-21 05:29:00,56.9,56.3,29.76,North,0,1.0,2.0,98,0.00,,,0.00,Wunderground v.1.15,2013-05-21 09:29:00,
2013-05-21 05:30:00,56.9,56.3,29.76,North,0,1.0,1.0,98,0.00,,,0.00,Wunderground v.1.15,2013-05-21 09:30:00,
2013-05-21 05:31:00,56.9,56.3,29.76,North,0,1.0,1.0,98,0.00,,,0.00,Wunderground v.1.15,2013-05-21 09:31:00,
2013-05-21 05:32:00,56.9,56.3,29.76,North,0,1.0,1.0,98,0.00,,,0.00,Wunderground v.1.15,2013-05-21 09:32:00,
2013-05-21 05:34:00,56.9,56.3,29.76,North,0,1.0,1.0,98,0.00,,,0.00,Wunderground v.1.15,2013-05-21 09:34:00,
2013-05-21 05:35:00,56.9,56.3,29.76,North,0,1.0,1.0,98,0.00,,,0.00,Wunderground v.1.15,2013-05-21 09:35:00,
2013-05-21 05:36:00,56.9,56.3,29.75,North,0,1.0,1.0,98,0.00,,,0.00,Wunderground v.1.15,2013-05-21 09:36:00,
2013-05-21 05:37:00,56.9,56.3,29.75,North,0,1.0,1.0,98,0.00,,,0.00,Wunderground v.1.15,2013-05-21 09:37:00,
2013-05-21 05:40:00,56.9,56.3,29.75,North,0,1.0,1.0,98,0.00,,,0.00,Wunderground v.1.15,2013-05-21 09:40:00,
2013-05-21 05:41:00,56.9,56.3,29.75,North,0,1.0,1.0,98,0.00,,,0.00,Wunderground v.1.15,2013-05-21 09:41:00,
2013-05-21 05:43:00,56.9,56.3,29.75,North,0,1.0,1.0,98,0.00,,,0.00,Wunderground v.1.15,2013-05-21 09:43:00,
2013-05-21 05:45:00,56.9,56.3,29.75,North,0,1.0,1.0,98,0.00,,,0.00,Wunderground v.1.15,2013-05-21 09:45:00,
2013-05-21 05:46:00,56.9,56.3,29.75,North,0,1.0,1.0,98,0.00,,,0.00,Wunderground v.1.15,2013-05-21 09:46:00,
2013-05-21 05:47:00,56.9,56.3,29.75,North,0,1.0,1.0,98,0.00,,,0.00,Wunderground v.1.15,2013-05-21 09:47:00,
2013-05-21 05:50:00,56.9,56.3,29.75,North,0,1.0,1.0,98,0.00,,,0.00,Wunderground v.1.15,2013-05-21 09:50:00,
2013-05-21 05:51:00,56.9,56.3,29.76,North,0,1.0,1.0,98,0.00,,,0.00,Wunderground v.1.15,2013-05-21 09:51:00,
2013-05-21 05:52:00,56.9,56.3,29.76,North,0,1.0,1.0,98,0.00,,,0.00,Wunderground v.1.15,2013-05-21 09:52:00,
2013-05-21 05:55:00,56.9,56.3,29.76,North,0,1.0,1.0,98,0.00,,,0.00,Wunderground v.1.15,2013-05-21 09:55:00,
2013-05-21 05:57:00,56.9,56.3,29.76,North,0,1.0,1.0,98,0.00,,,0.00,Wunderground v.1.15,2013-05-21 09:57:00,
2013-05-21 06:02:00,56.9,56.3,29.76,North,0,1.0,1.0,98,0.00,,,0.00,Wunderground v.1.15,2013-05-21 10:02:00,
2013-05-21 06:03:00,56.9,56.3,29.76,North,0,1.0,1.0,98,0.00,,,0.00,Wunderground v.1.15,2013-05-21 10:03:00,
2013-05-21 06:04:00,56.9,56.3,29.76,North,0,1.0,1.0,98,0.00,,,0.00,Wunderground v.1.15,2013-05-21 10:04:00,
2013-05-21 06:07:00,56.9,56.3,29.75,North,0,1.0,1.0,98,0.00,,,0.00,Wunderground v.1.15,2013-05-21 10:07:00,
2013-05-21 06:08:00,56.9,56.3,29.75,North,0,1.0,1.0,98,0.00,,,0.00,Wunderground v.1.15,2013-05-21 10:08:00,
2013-05-21 06:09:00,56.9,56.3,29.75,North,0,1.0,1.0,98,0.00,,,0.00,Wunderground v.1.15,2013-05-21 10:09:00,
2013-05-21 06:10:00,56.9,56.3,29.75,North,0,1.0,1.0,98,0.00,,,0.00,Wunderground v.1.15,2013-05-21 10:10:00,
2013-05-21 06:13:00,56.9,56.3,29.75,North,0,1.0,1.0,98,0.00,,,0.00,Wunderground v.1.15,2013-05-21 10:13:00,
2013-05-21 06:14:00,56.9,56.3,29.75,North,0,1.0,1.0,98,0.00,,,0.00,Wunderground v.1.15,2013-05-21 10:14:00,
2013-05-21 06:16:00,56.9,56.3,29.75,North,0,1.0,1.0,98,0.00,,,0.00,Wunderground v.1.15,2013-05-21 10:16:00,
2013-05-21 06:20:00,56.9,56.3,29.75,North,0,1.0,1.0,98,0.00,,,0.00,Wunderground v.1.15,2013-05-21 10:20:00,
2013-05-21 06:21:00,56.9,56.3,29.75,North,0,1.0,1.0,98,0.00,,,0.00,Wunderground v.1.15,2013-05-21 10:21:00,
2013-05-21 06:22:00,56.9,56.3,29.75,North,0,1.0,1.0,98,0.00,,,0.00,Wunderground v.1.15,2013-05-21 10:22:00,
2013-05-21 06:25:00,56.9,56.3,29.75,North,0,1.0,1.0,98,0.00,,,0.00,Wunderground v.1.15,2013-05-21 10:25:00,
2013-05-21 06:26:00,56.9,56.3,29.75,North,0,1.0,1.0,98,0.00,,,0.00,Wunderground v.1.15,2013-05-21 10:26:00,
2013-05-21 06:27:00,56.9,56.3,29.75,North,0,1.0,1.0,98,0.00,,,0.00,Wunderground v.1.15,2013-05-21 10:27:00,
2013-05-21 06:28:00,56.9,56.3,29.75,North,0,1.0,1.0,98,0.00,,,0.00,Wunderground v.1.15,2013-05-21 10:28:00,
2013-05-21 06:30:00,56.9,56.3,29.75,North,0,1.0,1.0,98,0.00,,,0.00,Wunderground v.1.15,2013-05-21 10:30:00,
2013-05-21 06:31:00,56.9,56.3,29.75,North,0,1.0,1.0,98,0.00,,,0.00,Wunderground v.1.15,2013-05-21 10:31:00,
2013-05-21 06:32:00,56.9,56.3,29.75,North,0,1.0,1.0,98,0.00,,,0.00,Wunderground v.1.15,2013-05-21 10:32:00,
2013-05-21 06:33:00,56.9,56.3,29.75,North,0,1.0,1.0,98,0.00,,,0.00,Wunderground v.1.15,2013-05-21 10:33:00,
2013-05-21 06:34:00,56.9,56.3,29.75,North,0,1.0,1.0,98,0.00,,,0.00,Wunderground v.1.15,2013-05-21 10:34:00,
2013-05-21 06:35:00,56.9,56.3,29.75,North,0,1.0,1.0,98,0.00,,,0.00,Wunderground v.1.15,2013-05-21 10:35:00,
2013-05-21 06:37:00,56.9,56.3,29.75,North,0,1.0,1.0,98,0.00,,,0.00,Wunderground v.1.15,2013-05-21 10:37:00,
2013-05-21 06:38:00,56.9,56.3,29.75,North,0,1.0,1.0,98,0.00,,,0.00,Wunderground v.1.15,2013-05-21 10:38:00,
2013-05-21 06:39:00,56.9,56.3,29.75,North,0,1.0,1.0,98,0.00,,,0.00,Wunderground v.1.15,2013-05-21 10:39:00,
2013-05-21 06:40:00,56.9,56.3,29.75,North,0,1.0,1.0,98,0.00,,,0.00,Wunderground v.1.15,2013-05-21 10:40:00,
2013-05-21 06:43:00,56.9,56.3,29.75,North,0,1.0,1.0,98,0.00,,,0.00,Wunderground v.1.15,2013-05-21 10:43:00,
2013-05-21 06:44:00,56.9,56.3,29.75,North,0,1.0,1.0,98,0.00,,,0.00,Wunderground v.1.15,2013-05-21 10:44:00,
2013-05-21 06:45:00,56.9,56.3,29.75,North,0,1.0,1.0,98,0.00,,,0.00,Wunderground v.1.15,2013-05-21 10:45:00,
2013-05-21 06:48:00,56.9,56.3,29.75,North,0,1.0,1.0,98,0.00,,,0.00,Wunderground v.1.15,2013-05-21 10:48:00,
2013-05-21 06:49:00,56.9,56.3,29.75,North,0,1.0,1.0,98,0.00,,,0.00,Wunderground v.1.15,2013-05-21 10:49:00,
2013-05-21 06:51:00,56.9,56.3,29.75,North,0,1.0,1.0,98,0.00,,,0.00,Wunderground v.1.15,2013-05-21 10:51:00,
2013-05-21 06:54:00,56.9,56.3,29.75,North,0,1.0,1.0,98,0.00,,,0.00,Wunderground v.1.15,2013-05-21 10:54:00,
2013-05-21 06:56:00,56.9,56.3,29.75,North,0,1.0,1.0,98,0.00,,,0.00,Wunderground v.1.15,2013-05-21 10:56:00,
2013-05-21 06:57:00,56.9,56.3,29.75,North,0,0.0,1.0,98,0.00,,,0.00,Wunderground v.1.15,2013-05-21 10:57:00,
2013-05-21 07:00:00,56.9,56.3,29.75,North,0,0.0,1.0,98,0.00,,,0.00,Wunderground v.1.15,2013-05-21 11:00:00,
2013-05-21 07:01:00,56.9,56.3,29.75,North,0,0.0,1.0,98,0.00,,,0.00,Wunderground v.1.15,2013-05-21 11:01:00,
2013-05-21 07:02:00,56.9,56.3,29.75,North,0,0.0,1.0,98,0.00,,,0.00,Wunderground v.1.15,2013-05-21 11:02:00,
2013-05-21 07:05:00,56.9,56.3,29.75,North,0,1.0,1.0,98,0.00,,,0.00,Wunderground v.1.15,2013-05-21 11:05:00,
2013-05-21 07:06:00,56.9,56.6,29.75,North,0,0.0,1.0,99,0.00,,,0.00,Wunderground v.1.15,2013-05-21 11:06:00,
2013-05-21 07:07:00,56.9,56.6,29.75,North,0,0.0,1.0,99,0.00,,,0.00,Wunderground v.1.15,2013-05-21 11:07:00,
2013-05-21 07:11:00,56.9,56.6,29.75,North,0,0.0,0.0,99,0.00,,,0.00,Wunderground v.1.15,2013-05-21 11:11:00,
2013-05-21 07:12:00,56.9,56.6,29.75,North,0,0.0,0.0,99,0.00,,,0.00,Wunderground v.1.15,2013-05-21 11:12:00,
2013-05-21 07:16:00,56.9,56.6,29.75,NNE,17,1.0,3.0,99,0.00,,,0.00,Wunderground v.1.15,2013-05-21 11:16:00,
2013-05-21 07:17:00,58.4,58.1,29.75,NNE,17,1.0,3.0,99,0.00,,,0.00,Wunderground v.1.15,2013-05-21 11:17:00,
2013-05-21 07:18:00,58.4,58.1,29.75,NNE,17,1.0,3.0,99,0.00,,,0.00,Wunderground v.1.15,2013-05-21 11:18:00,
2013-05-21 07:21:00,58.4,58.1,29.76,NNE,17,0.0,1.0,99,0.00,,,0.00,Wunderground v.1.15,2013-05-21 11:21:00,
2013-05-21 07:23:00,58.7,58.4,29.76,NNE,17,0.0,1.0,99,0.00,,,0.00,Wunderground v.1.15,2013-05-21 11:23:00,
2013-05-21 07:24:00,58.7,58.4,29.76,NNE,17,0.0,1.0,99,0.00,,,0.00,Wunderground v.1.15,2013-05-21 11:24:00,
2013-05-21 07:27:00,58.6,58.3,29.76,WSW,248,1.0,1.0,99,0.00,,,0.00,Wunderground v.1.15,2013-05-21 11:27:00,
2013-05-21 07:29:00,58.7,58.4,29.76,NE,48,4.0,4.0,99,0.00,,,0.00,Wunderground v.1.15,2013-05-21 11:29:00,
2013-05-21 07:30:00,58.7,58.4,29.76,South,171,2.0,2.0,99,0.00,,,0.00,Wunderground v.1.15,2013-05-21 11:30:00,
2013-05-21 07:31:00,58.7,58.4,29.76,South,171,2.0,2.0,99,0.00,,,0.00,Wunderground v.1.15,2013-05-21 11:31:00,
2013-05-21 07:33:00,58.7,58.4,29.76,South,171,0.0,2.0,99,0.00,,,0.00,Wunderground v.1.15,2013-05-21 11:33:00,
2013-05-21 07:35:00,58.7,58.4,29.76,SE,130,2.0,2.0,99,0.00,,,0.00,Wunderground v.1.15,2013-05-21 11:35:00,
2013-05-21 07:36:00,58.7,58.4,29.76,SE,130,0.0,2.0,99,0.00,,,0.00,Wunderground v.1.15,2013-05-21 11:36:00,
2013-05-21 07:37:00,58.7,58.4,29.76,ESE,120,2.0,2.0,99,0.00,,,0.00,Wunderground v.1.15,2013-05-21 11:37:00,
2013-05-21 07:38:00,58.7,58.4,29.76,ESE,120,0.0,2.0,99,0.00,,,0.00,Wunderground v.1.15,2013-05-21 11:38:00,
2013-05-21 07:41:00,58.7,58.4,29.76,ESE,120,0.0,1.0,99,0.00,,,0.00,Wunderground v.1.15,2013-05-21 11:41:00,
2013-05-21 07:42:00,58.9,58.6,29.76,ESE,120,0.0,1.0,99,0.00,,,0.00,Wunderground v.1.15,2013-05-21 11:42:00,
2013-05-21 07:44:00,58.9,58.6,29.76,ESE,120,0.0,1.0,99,0.00,,,0.00,Wunderground v.1.15,2013-05-21 11:44:00,
2013-05-21 07:47:00,58.9,58.6,29.76,ESE,120,0.0,1.0,99,0.00,,,0.00,Wunderground v.1.15,2013-05-21 11:47:00,
2013-05-21 07:48:00,58.9,58.6,29.76,ESE,120,0.0,1.0,99,0.00,,,0.00,Wunderground v.1.15,2013-05-21 11:48:00,
2013-05-21 07:49:00,58.9,58.6,29.76,ESE,120,0.0,1.0,99,0.00,,,0.00,Wunderground v.1.15,2013-05-21 11:49:00,
2013-05-21 07:53:00,58.9,58.6,29.77,ESE,120,0.0,0.0,99,0.00,,,0.00,Wunderground v.1.15,2013-05-21 11:53:00,
2013-05-21 07:55:00,58.9,58.6,29.77,ESE,120,0.0,0.0,99,0.00,,,0.00,Wunderground v.1.15,2013-05-21 11:55:00,
2013-05-21 07:58:00,58.9,58.6,29.77,ESE,120,1.0,1.0,99,0.00,,,0.00,Wunderground v.1.15,2013-05-21 11:58:00,
2013-05-21 07:59:00,58.9,58.6,29.77,ESE,120,1.0,1.0,99,0.00,,,0.00,Wunderground v.1.15,2013-05-21 11:59:00,
2013-05-21 08:00:00,58.9,58.6,29.77,ESE,120,1.0,1.0,99,0.00,,,0.00,Wunderground v.1.15,2013-05-21 12:00:00,
2013-05-21 08:03:00,60.2,59.9,29.77,NW,323,0.0,1.0,99,0.00,,,0.00,Wunderground v.1.15,2013-05-21 12:03:00,
2013-05-21 08:04:00,60.2,59.9,29.77,NW,323,0.0,1.0,99,0.00,,,0.00,Wunderground v.1.15,2013-05-21 12:04:00,
2013-05-21 08:06:00,60.2,59.9,29.76,NW,323,0.0,1.0,99,0.00,,,0.00,Wunderground v.1.15,2013-05-21 12:06:00,
2013-05-21 08:09:00,60.2,59.9,29.76,NW,323,0.0,1.0,99,0.00,,,0.00,Wunderground v.1.15,2013-05-21 12:09:00,
2013-05-21 08:10:00,60.2,59.9,29.76,NW,323,0.0,0.0,99,0.00,,,0.00,Wunderground v.1.15,2013-05-21 12:10:00,
2013-05-21 08:11:00,60.4,60.1,29.76,NW,323,1.0,1.0,99,0.00,,,0.00,Wunderground v.1.15,2013-05-21 12:11:00,
2013-05-21 08:14:00,60.4,60.1,29.76,NW,323,0.0,1.0,99,0.00,,,0.00,Wunderground v.1.15,2013-05-21 12:14:00,
2013-05-21 08:15:00,60.4,60.1,29.76,NW,323,0.0,1.0,99,0.00,,,0.00,Wunderground v.1.15,2013-05-21 12:15:00,
2013-05-21 08:17:00,60.7,60.4,29.76,ESE,113,3.0,3.0,99,0.00,,,0.00,Wunderground v.1.15,2013-05-21 12:17:00,
2013-05-21 08:18:00,60.7,60.4,29.76,ESE,113,3.0,3.0,99,0.00,,,0.00,Wunderground v.1.15,2013-05-21 12:18:00,
2013-05-21 08:20:00,60.7,60.4,29.76,ESE,113,0.0,1.0,99,0.00,,,0.00,Wunderground v.1.15,2013-05-21 12:20:00,
2013-05-21 08:23:00,61.5,61.2,29.77,ESE,113,0.0,2.0,99,0.00,,,0.00,Wunderground v.1.15,2013-05-21 12:23:00,
2013-05-21 08:24:00,61.6,61.3,29.77,ESE,113,1.0,2.0,99,0.00,,,0.00,Wunderground v.1.15,2013-05-21 12:24:00,
2013-05-21 08:25:00,61.6,61.3,29.77,SE,141,1.0,3.0,99,0.00,,,0.00,Wunderground v.1.15,2013-05-21 12:25:00,
2013-05-21 08:26:00,61.8,61.5,29.77,SE,141,0.0,3.0,99,0.00,,,0.00,Wunderground v.1.15,2013-05-21 12:26:00,
2013-05-21 08:28:00,61.8,61.5,29.77,SE,141,2.0,3.0,99,0.00,,,0.00,Wunderground v.1.15,2013-05-21 12:28:00,
2013-05-21 08:29:00,62.0,61.7,29.77,NE,48,1.0,3.0,99,0.00,,,0.00,Wunderground v.1.15,2013-05-21 12:29:00,
2013-05-21 08:30:00,62.1,61.8,29.77,South,181,0.0,1.0,99,0.00,,,0.00,Wunderground v.1.15,2013-05-21 12:30:00,
2013-05-21 08:31:00,62.1,61.8,29.77,ENE,61,6.0,6.0,99,0.00,,,0.00,Wunderground v.1.15,2013-05-21 12:31:00,
2013-05-21 08:34:00,62.3,62.0,29.77,NW,322,2.0,6.0,99,0.00,,,0.00,Wunderground v.1.15,2013-05-21 12:34:00,
2013-05-21 08:35:00,62.4,62.1,29.77,SW,220,2.0,6.0,99,0.00,,,0.00,Wunderground v.1.15,2013-05-21 12:35:00,
2013-05-21 08:37:00,62.4,62.1,29.77,ENE,68,3.0,6.0,99,0.00,,,0.00,Wunderground v.1.15,2013-05-21 12:37:00,
2013-05-21 08:39:00,62.4,62.1,29.77,NNE,20,0.0,6.0,99,0.00,,,0.00,Wunderground v.1.15,2013-05-21 12:39:00,
2013-05-21 08:40:00,62.4,62.1,29.77,NNE,20,0.0,3.0,99,0.00,,,0.00,Wunderground v.1.15,2013-05-21 12:40:00,
2013-05-21 08:41:00,62.4,62.1,29.77,NNE,20,0.0,3.0,99,0.00,,,0.00,Wunderground v.1.15,2013-05-21 12:41:00,
2013-05-21 08:42:00,62.4,62.1,29.77,North,350,0.0,3.0,99,0.00,,,0.00,Wunderground v.1.15,2013-05-21 12:42:00,
2013-05-21 08:45:00,62.9,62.6,29.77,NE,48,2.0,3.0,99,0.00,,,0.00,Wunderground v.1.15,2013-05-21 12:45:00,
2013-05-21 08:46:00,62.9,62.3,29.77,ENE,64,0.0,3.0,98,0.00,,,0.00,Wunderground v.1.15,2013-05-21 12:46:00,
2013-05-21 08:47:00,62.9,62.3,29.77,ENE,64,0.0,3.0,98,0.00,,,0.00,Wunderground v.1.15,2013-05-21 12:47:00,
2013-05-21 08:49:00,63.1,62.5,29.77,ENE,64,0.0,3.0,98,0.00,,,0.00,Wunderground v.1.15,2013-05-21 12:49:00,
2013-05-21 08:50:00,63.1,62.5,29.77,ENE,64,0.0,1.0,98,0.00,,,0.00,Wunderground v.1.15,2013-05-21 12:50:00,
2013-05-21 08:53:00,63.1,62.5,29.77,East,88,5.0,5.0,98,0.00,,,0.00,Wunderground v.1.15,2013-05-21 12:53:00,
2013-05-21 08:54:00,63.5,62.9,29.77,SW,234,0.0,5.0,98,0.00,,,0.00,Wunderground v.1.15,2013-05-21 12:54:00,
2013-05-21 08:55:00,63.5,62.9,29.77,SW,234,0.0,5.0,98,0.00,,,0.00,Wunderground v.1.15,2013-05-21 12:55:00,
2013-05-21 08:56:00,63.5,62.9,29.77,SW,234,0.0,5.0,98,0.00,,,0.00,Wunderground v.1.15,2013-05-21 12:56:00,
2013-05-21 08:58:00,63.5,62.9,29.77,East,93,2.0,5.0,98,0.00,,,0.00,Wunderground v.1.15,2013-05-21 12:58:00,
2013-05-21 09:00:00,63.5,62.9,29.77,East,93,2.0,2.0,98,0.00,,,0.00,Wunderground v.1.15,2013-05-21 13:00:00,
2013-05-21 09:01:00,63.5,62.9,29.77,SSW,192,0.0,2.0,98,0.00,,,0.00,Wunderground v.1.15,2013-05-21 13:01:00,
2013-05-21 09:03:00,63.5,62.9,29.77,East,100,0.0,2.0,98,0.00,,,0.00,Wunderground v.1.15,2013-05-21 13:03:00,
2013-05-21 09:05:00,63.5,62.9,29.77,East,100,0.0,2.0,98,0.00,,,0.00,Wunderground v.1.15,2013-05-21 13:05:00,
2013-05-21 09:06:00,63.5,62.9,29.77,East,100,1.0,2.0,98,0.00,,,0.00,Wunderground v.1.15,2013-05-21 13:06:00,
2013-05-21 09:07:00,63.5,62.9,29.77,East,100,1.0,2.0,98,0.00,,,0.00,Wunderground v.1.15,2013-05-21 13:07:00,
2013-05-21 09:08:00,64.7,64.1,29.77,SSE,154,3.0,3.0,98,0.00,,,0.00,Wunderground v.1.15,2013-05-21 13:08:00,
2013-05-21 09:10:00,64.7,64.1,29.77,SSW,195,1.0,1.0,98,0.00,,,0.00,Wunderground v.1.15,2013-05-21 13:10:00,
2013-05-21 09:11:00,64.7,64.1,29.77,SSW,195,1.0,1.0,98,0.00,,,0.00,Wunderground v.1.15,2013-05-21 13:11:00,
2013-05-21 09:12:00,64.7,64.1,29.77,SSW,195,1.0,1.0,98,0.00,,,0.00,Wunderground v.1.15,2013-05-21 13:12:00,
2013-05-21 09:13:00,64.7,64.1,29.77,SSW,195,1.0,1.0,98,0.00,,,0.00,Wunderground v.1.15,2013-05-21 13:13:00,
2013-05-21 09:15:00,64.7,64.1,29.77,NE,44,2.0,2.0,98,0.00,,,0.00,Wunderground v.1.15,2013-05-21 13:15:00,
2013-05-21 09:16:00,64.7,64.1,29.77,North,0,3.0,3.0,98,0.00,,,0.00,Wunderground v.1.15,2013-05-21 13:16:00,
2013-05-21 09:17:00,65.2,64.6,29.77,SSW,209,2.0,4.0,98,0.00,,,0.00,Wunderground v.1.15,2013-05-21 13:17:00,
2013-05-21 09:19:00,65.2,64.6,29.77,SSW,203,1.0,4.0,98,0.00,,,0.00,Wunderground v.1.15,2013-05-21 13:19:00,
2013-05-21 09:20:00,65.2,64.6,29.77,SSW,203,1.0,2.0,98,0.00,,,0.00,Wunderground v.1.15,2013-05-21 13:20:00,
2013-05-21 09:23:00,65.8,65.2,29.77,SSW,196,2.0,2.0,98,0.00,,,0.00,Wunderground v.1.15,2013-05-21 13:23:00,
2013-05-21 09:25:00,65.8,60.2,29.77,East,79,0.0,2.0,82,0.00,,,0.00,Wunderground v.1.15,2013-05-21 13:25:00,
2013-05-21 09:26:00,65.8,60.2,29.77,East,79,0.0,2.0,82,0.00,,,0.00,Wunderground v.1.15,2013-05-21 13:26:00,
2013-05-21 09:27:00,66.6,60.9,29.77,East,79,0.0,2.0,82,0.00,,,0.00,Wunderground v.1.15,2013-05-21 13:27:00,
2013-05-21 09:28:00,66.6,60.6,29.77,WNW,289,1.0,5.0,81,0.00,,,0.00,Wunderground v.1.15,2013-05-21 13:28:00,
2013-05-21 09:30:00,66.9,60.9,29.77,North,3,0.0,1.0,81,0.00,,,0.00,Wunderground v.1.15,2013-05-21 13:30:00,
2013-05-21 09:32:00,66.9,60.9,29.77,North,3,0.0,1.0,81,0.00,,,0.00,Wunderground v.1.15,2013-05-21 13:32:00,
2013-05-21 09:33:00,66.9,60.9,29.77,North,3,0.0,1.0,81,0.00,,,0.00,Wunderground v.1.15,2013-05-21 13:33:00,
2013-05-21 09:34:00,67.1,61.1,29.77,North,3,0.0,1.0,81,0.00,,,0.00,Wunderground v.1.15,2013-05-21 13:34:00,
2013-05-21 09:36:00,67.1,61.4,29.77,North,3,0.0,1.0,82,0.00,,,0.00,Wunderground v.1.15,2013-05-21 13:36:00,
2013-05-21 09:38:00,67.1,61.4,29.77,East,95,1.0,3.0,82,0.00,,,0.00,Wunderground v.1.15,2013-05-21 13:38:00,
2013-05-21 09:39:00,67.1,61.1,29.77,East,95,0.0,3.0,81,0.00,,,0.00,Wunderground v.1.15,2013-05-21 13:39:00,
2013-05-21 09:40:00,66.9,60.9,29.77,NNW,343,2.0,2.0,81,0.00,,,0.00,Wunderground v.1.15,2013-05-21 13:40:00,
2013-05-21 09:42:00,67.1,60.4,29.77,East,85,3.0,3.0,79,0.00,,,0.00,Wunderground v.1.15,2013-05-21 13:42:00,
2013-05-21 09:43:00,67.1,60.4,29.77,East,85,2.0,3.0,79,0.00,,,0.00,Wunderground v.1.15,2013-05-21 13:43:00,
2013-05-21 09:44:00,67.3,60.6,29.77,East,85,0.0,3.0,79,0.00,,,0.00,Wunderground v.1.15,2013-05-21 13:44:00,
2013-05-21 09:45:00,67.6,61.6,29.77,East,82,0.0,3.0,81,0.00,,,0.00,Wunderground v.1.15,2013-05-21 13:45:00,
2013-05-21 09:47:00,67.8,61.0,29.77,East,82,0.0,3.0,79,0.00,,,0.00,Wunderground v.1.15,2013-05-21 13:47:00,
2013-05-21 09:49:00,67.8,61.0,29.77,East,86,1.0,3.0,79,0.00,,,0.00,Wunderground v.1.15,2013-05-21 13:49:00,
2013-05-21 09:50:00,67.9,61.1,29.77,East,86,2.0,2.0,79,0.00,,,0.00,Wunderground v.1.15,2013-05-21 13:50:00,
2013-05-21 09:51:00,67.9,61.1,29.77,East,86,1.0,2.0,79,0.00,,,0.00,Wunderground v.1.15,2013-05-21 13:51:00,
2013-05-21 09:53:00,67.9,61.1,29.77,East,86,0.0,2.0,79,0.00,,,0.00,Wunderground v.1.15,2013-05-21 13:53:00,
2013-05-21 09:54:00,67.9,61.1,29.77,South,175,1.0,2.0,79,0.00,,,0.00,Wunderground v.1.15,2013-05-21 13:54:00,
2013-05-21 09:56:00,68.1,61.3,29.77,South,175,2.0,2.0,79,0.00,,,0.00,Wunderground v.1.15,2013-05-21 13:56:00,
2013-05-21 09:57:00,68.1,61.3,29.77,ENE,71,1.0,2.0,79,0.00,,,0.00,Wunderground v.1.15,2013-05-21 13:57:00,
2013-05-21 09:58:00,68.1,61.3,29.77,SW,216,2.0,2.0,79,0.00,,,0.00,Wunderground v.1.15,2013-05-21 13:58:00,
2013-05-21 09:59:00,68.1,61.3,29.77,SW,216,2.0,2.0,79,0.00,,,0.00,Wunderground v.1.15,2013-05-21 13:59:00,
2013-05-21 10:01:00,68.1,61.3,29.77,SW,216,2.0,2.0,79,0.00,,,0.00,Wunderground v.1.15,2013-05-21 14:01:00,
2013-05-21 10:02:00,68.1,61.3,29.77,SW,216,2.0,2.0,79,0.00,,,0.00,Wunderground v.1.15,2013-05-21 14:02:00,
2013-05-21 10:04:00,68.1,61.3,29.77,East,82,3.0,3.0,79,0.00,,,0.00,Wunderground v.1.15,2013-05-21 14:04:00,
2013-05-21 10:05:00,68.1,61.3,29.77,NNW,343,3.0,3.0,79,0.00,,,0.00,Wunderground v.1.15,2013-05-21 14:05:00,
2013-05-21 10:07:00,68.1,61.3,29.78,ENE,69,3.0,3.0,79,0.00,,,0.00,Wunderground v.1.15,2013-05-21 14:07:00,
2013-05-21 10:09:00,68.1,61.3,29.78,ENE,65,1.0,3.0,79,0.00,,,0.00,Wunderground v.1.15,2013-05-21 14:09:00,
2013-05-21 10:10:00,68.1,61.3,29.78,ENE,65,1.0,3.0,79,0.00,,,0.00,Wunderground v.1.15,2013-05-21 14:10:00,
2013-05-21 10:12:00,68.1,61.3,29.78,ENE,72,1.0,3.0,79,0.00,,,0.00,Wunderground v.1.15,2013-05-21 14:12:00,
2013-05-21 10:14:00,68.3,61.5,29.78,NE,47,6.0,6.0,79,0.00,,,0.00,Wunderground v.1.15,2013-05-21 14:14:00,
2013-05-21 10:15:00,68.1,61.3,29.78,WSW,241,2.0,6.0,79,0.00,,,0.00,Wunderground v.1.15,2013-05-21 14:15:00,
2013-05-21 10:17:00,68.1,61.3,29.78,ENE,65,2.0,6.0,79,0.00,,,0.00,Wunderground v.1.15,2013-05-21 14:17:00,
2013-05-21 10:18:00,68.1,61.3,29.78,ENE,65,2.0,6.0,79,0.00,,,0.00,Wunderground v.1.15,2013-05-21 14:18:00,
2013-05-21 10:19:00,68.1,61.3,29.78,ENE,65,2.0,6.0,79,0.00,,,0.00,Wunderground v.1.15,2013-05-21 14:19:00,
2013-05-21 10:21:00,68.1,61.3,29.77,ENE,65,2.0,2.0,79,0.00,,,0.00,Wunderground v.1.15,2013-05-21 14:21:00,
2013-05-21 10:24:00,67.9,60.4,29.77,NNW,343,5.0,5.0,77,0.00,,,0.00,Wunderground v.1.15,2013-05-21 14:24:00,
2013-05-21 10:25:00,67.9,60.4,29.77,NNW,343,5.0,5.0,77,0.00,,,0.00,Wunderground v.1.15,2013-05-21 14:25:00,
2013-05-21 10:26:00,67.9,60.4,29.77,NNW,343,5.0,5.0,77,0.00,,,0.00,Wunderground v.1.15,2013-05-21 14:26:00,
2013-05-21 10:29:00,67.8,60.7,29.77,SE,144,0.0,7.0,78,0.00,,,0.00,Wunderground v.1.15,2013-05-21 14:29:00,
2013-05-21 10:30:00,67.8,60.7,29.77,SE,144,1.0,3.0,78,0.00,,,0.00,Wunderground v.1.15,2013-05-21 14:30:00,
2013-05-21 10:31:00,67.8,60.7,29.77,SE,144,1.0,3.0,78,0.00,,,0.00,Wunderground v.1.15,2013-05-21 14:31:00,
2013-05-21 10:32:00,67.8,60.7,29.77,SE,144,0.0,3.0,78,0.00,,,0.00,Wunderground v.1.15,2013-05-21 14:32:00,
2013-05-21 10:33:00,67.8,60.7,29.77,SE,144,0.0,3.0,78,0.00,,,0.00,Wunderground v.1.15,2013-05-21 14:33:00,
2013-05-21 10:34:00,67.6,60.5,29.77,SE,144,0.0,3.0,78,0.00,,,0.00,Wunderground v.1.15,2013-05-21 14:34:00,
2013-05-21 10:35:00,67.6,61.6,29.77,SE,144,0.0,3.0,81,0.00,,,0.00,Wunderground v.1.15,2013-05-21 14:35:00,
2013-05-21 10:37:00,67.6,61.2,29.78,West,278,0.0,3.0,80,0.00,,,0.00,Wunderground v.1.15,2013-05-21 14:37:00,
2013-05-21 10:39:00,67.4,61.7,29.78,West,278,0.0,3.0,82,0.00,,,0.00,Wunderground v.1.15,2013-05-21 14:39:00,
2013-05-21 10:40:00,67.4,62.1,29.78,West,278,0.0,0.0,83,0.00,,,0.00,Wunderground v.1.15,2013-05-21 14:40:00,
2013-05-21 10:41:00,67.3,62.0,29.78,West,275,1.0,1.0,83,0.00,,,0.00,Wunderground v.1.15,2013-05-21 14:41:00,
2013-05-21 10:42:00,67.3,61.6,29.78,West,275,1.0,2.0,82,0.00,,,0.00,Wunderground v.1.15,2013-05-21 14:42:00,
2013-05-21 10:43:00,67.1,61.4,29.78,West,275,0.0,2.0,82,0.00,,,0.00,Wunderground v.1.15,2013-05-21 14:43:00,
2013-05-21 10:45:00,67.1,61.1,29.78,NNE,31,2.0,2.0,81,0.00,,,0.00,Wunderground v.1.15,2013-05-21 14:45:00,
2013-05-21 10:46:00,67.1,61.1,29.78,NNE,31,1.0,2.0,81,0.00,,,0.00,Wunderground v.1.15,2013-05-21 14:46:00,
2013-05-21 10:48:00,67.1,61.1,29.78,NE,34,1.0,2.0,81,0.00,,,0.00,Wunderground v.1.15,2013-05-21 14:48:00,
2013-05-21 10:50:00,67.3,60.6,29.78,NE,37,1.0,1.0,79,0.00,,,0.00,Wunderground v.1.15,2013-05-21 14:50:00,
2013-05-21 10:51:00,67.3,60.2,29.78,NE,37,0.0,1.0,78,0.00,,,0.00,Wunderground v.1.15,2013-05-21 14:51:00,
2013-05-21 10:52:00,67.4,60.3,29.78,NE,40,4.0,4.0,78,0.00,,,0.00,Wunderground v.1.15,2013-05-21 14:52:00,
2013-05-21 10:54:00,67.4,59.6,29.78,WSW,248,2.0,6.0,76,0.00,,,0.00,Wunderground v.1.15,2013-05-21 14:54:00,
2013-05-21 10:56:00,67.6,60.5,29.78,ENE,58,3.0,6.0,78,0.00,,,0.00,Wunderground v.1.15,2013-05-21 14:56:00,
2013-05-21 10:59:00,67.9,60.4,29.78,ESE,113,0.0,6.0,77,0.00,,,0.00,Wunderground v.1.15,2013-05-21 14:59:00,
2013-05-21 11:00:00,67.9,59.7,29.78,South,189,0.0,2.0,75,0.00,,,0.00,Wunderground v.1.15,2013-05-21 15:00:00,
2013-05-21 11:01:00,67.9,59.7,29.78,South,189,0.0,2.0,75,0.00,,,0.00,Wunderground v.1.15,2013-05-21 15:01:00,
2013-05-21 11:05:00,68.1,61.0,29.78,East,79,1.0,3.0,78,0.00,,,0.00,Wunderground v.1.15,2013-05-21 15:05:00,
2013-05-21 11:06:00,68.1,60.2,29.77,ENE,75,0.0,3.0,76,0.00,,,0.00,Wunderground v.1.15,2013-05-21 15:06:00,
2013-05-21 11:07:00,68.1,60.2,29.77,ENE,75,1.0,3.0,76,0.00,,,0.00,Wunderground v.1.15,2013-05-21 15:07:00,
2013-05-21 11:11:00,68.6,61.5,29.77,ENE,75,2.0,2.0,78,0.00,,,0.00,Wunderground v.1.15,2013-05-21 15:11:00,
2013-05-21 11:12:00,68.6,61.5,29.77,ENE,75,0.0,2.0,78,0.00,,,0.00,Wunderground v.1.15,2013-05-21 15:12:00,
2013-05-21 11:14:00,68.6,60.0,29.77,ENE,71,0.0,4.0,74,0.00,,,0.00,Wunderground v.1.15,2013-05-21 15:14:00,
2013-05-21 11:17:00,68.6,60.4,29.77,ENE,71,0.0,4.0,75,0.00,,,0.00,Wunderground v.1.15,2013-05-21 15:17:00,
2013-05-21 11:20:00,68.4,60.9,29.77,ENE,65,2.0,2.0,77,0.00,,,0.00,Wunderground v.1.15,2013-05-21 15:20:00,
2013-05-21 11:22:00,68.1,61.0,29.77,South,169,1.0,2.0,78,0.00,,,0.00,Wunderground v.1.15,2013-05-21 15:22:00,
2013-05-21 11:23:00,67.9,60.8,29.77,NE,44,1.0,2.0,78,0.00,,,0.00,Wunderground v.1.15,2013-05-21 15:23:00,
2013-05-21 11:26:00,67.6,60.5,29.77,ENE,62,0.0,3.0,78,0.00,,,0.00,Wunderground v.1.15,2013-05-21 15:26:00,
2013-05-21 11:27:00,67.6,60.5,29.77,West,280,3.0,3.0,78,0.00,,,0.00,Wunderground v.1.15,2013-05-21 15:27:00,
2013-05-21 11:28:00,67.6,60.5,29.77,West,278,0.0,3.0,78,0.00,,,0.00,Wunderground v.1.15,2013-05-21 15:28:00,
2013-05-21 11:29:00,67.4,60.3,29.77,NE,37,2.0,3.0,78,0.00,,,0.00,Wunderground v.1.15,2013-05-21 15:29:00,
2013-05-21 11:31:00,67.1,61.1,29.77,WNW,288,2.0,6.0,81,0.00,,,0.00,Wunderground v.1.15,2013-05-21 15:31:00,
2013-05-21 11:32:00,67.1,61.1,29.77,NE,41,1.0,6.0,81,0.00,,,0.00,Wunderground v.1.15,2013-05-21 15:32:00,
2013-05-21 11:33:00,66.9,60.9,29.77,NE,54,5.0,6.0,81,0.00,,,0.00,Wunderground v.1.15,2013-05-21 15:33:00,
2013-05-21 11:34:00,66.9,60.9,29.77,NE,51,3.0,6.0,81,0.00,,,0.00,Wunderground v.1.15,2013-05-21 15:34:00,
2013-05-21 11:36:00,66.9,61.6,29.78,NE,51,5.0,6.0,83,0.00,,,0.00,Wunderground v.1.15,2013-05-21 15:36:00,
2013-05-21 11:38:00,66.9,61.6,29.78,NE,51,0.0,6.0,83,0.00,,,0.00,Wunderground v.1.15,2013-05-21 15:38:00,
2013-05-21 11:39:00,66.8,60.8,29.78,NE,40,2.0,6.0,81,0.00,,,0.00,Wunderground v.1.15,2013-05-21 15:39:00,
2013-05-21 11:41:00,66.9,61.6,29.78,ENE,61,1.0,2.0,83,0.00,,,0.00,Wunderground v.1.15,2013-05-21 15:41:00,
2013-05-21 11:43:00,66.9,61.6,29.78,ENE,61,2.0,3.0,83,0.00,,,0.00,Wunderground v.1.15,2013-05-21 15:43:00,
2013-05-21 11:44:00,66.9,61.6,29.78,ENE,61,2.0,3.0,83,0.00,,,0.00,Wunderground v.1.15,2013-05-21 15:44:00,
2013-05-21 11:46:00,66.8,61.5,29.78,NE,51,3.0,3.0,83,0.00,,,0.00,Wunderground v.1.15,2013-05-21 15:46:00,
2013-05-21 11:48:00,66.3,61.0,29.78,NNE,31,2.0,3.0,83,0.00,,,0.00,Wunderground v.1.15,2013-05-21 15:48:00,
2013-05-21 11:49:00,66.3,61.0,29.78,NE,41,2.0,3.0,83,0.00,,,0.00,Wunderground v.1.15,2013-05-21 15:49:00,
2013-05-21 11:52:00,66.3,61.0,29.78,North,349,2.0,2.0,83,0.00,,,0.00,Wunderground v.1.15,2013-05-21 15:52:00,
2013-05-21 11:53:00,66.3,61.0,29.78,North,6,0.0,2.0,83,0.00,,,0.00,Wunderground v.1.15,2013-05-21 15:53:00,
2013-05-21 11:54:00,66.3,61.0,29.78,North,6,0.0,2.0,83,0.00,,,0.00,Wunderground v.1.15,2013-05-21 15:54:00,
2013-05-21 11:55:00,64.7,59.4,29.78,North,6,1.0,2.0,83,0.00,,,0.00,Wunderground v.1.15,2013-05-21 15:55:00,
2013-05-21 11:57:00,64.7,59.4,29.78,North,0,0.0,2.0,83,0.00,,,0.00,Wunderground v.1.15,2013-05-21 15:57:00,
2013-05-21 11:59:00,64.3,59.0,29.78,NW,326,2.0,2.0,83,0.00,,,0.00,Wunderground v.1.15,2013-05-21 15:59:00,
2013-05-21 12:00:00,64.3,59.0,29.78,NE,37,3.0,3.0,83,0.00,,,0.00,Wunderground v.1.15,2013-05-21 16:00:00,
2013-05-21 12:02:00,64.0,58.7,29.78,NNE,31,3.0,3.0,83,0.00,,,0.00,Wunderground v.1.15,2013-05-21 16:02:00,
2013-05-21 12:04:00,63.9,60.6,29.78,NNE,31,1.0,3.0,89,0.00,,,0.00,Wunderground v.1.15,2013-05-21 16:04:00,
2013-05-21 12:05:00,63.9,60.6,29.78,NNE,31,3.0,3.0,89,0.00,,,0.00,Wunderground v.1.15,2013-05-21 16:05:00,
2013-05-21 12:06:00,64.0,60.7,29.79,NNE,31,1.0,3.0,89,0.00,,,0.00,Wunderground v.1.15,2013-05-21 16:06:00,
2013-05-21 12:08:00,64.0,60.7,29.79,NE,37,2.0,5.0,89,0.00,,,0.00,Wunderground v.1.15,2013-05-21 16:08:00,
2013-05-21 12:10:00,64.0,60.7,29.79,NE,44,2.0,2.0,89,0.00,,,0.00,Wunderground v.1.15,2013-05-21 16:10:00,
2013-05-21 12:11:00,64.0,60.7,29.79,NE,44,2.0,2.0,89,0.00,,,0.00,Wunderground v.1.15,2013-05-21 16:11:00,
2013-05-21 12:12:00,64.0,60.7,29.79,NE,51,2.0,2.0,89,0.00,,,0.00,Wunderground v.1.15,2013-05-21 16:12:00,
2013-05-21 12:13:00,64.0,60.7,29.79,ENE,68,3.0,3.0,89,0.00,,,0.00,Wunderground v.1.15,2013-05-21 16:13:00,
2013-05-21 12:15:00,63.9,60.6,29.79,ENE,68,0.0,3.0,89,0.00,,,0.00,Wunderground v.1.15,2013-05-21 16:15:00,
2013-05-21 12:17:00,63.9,60.6,29.79,ENE,68,0.0,3.0,89,0.00,,,0.00,Wunderground v.1.15,2013-05-21 16:17:00,
2013-05-21 12:18:00,63.9,60.6,29.79,ENE,68,0.0,3.0,89,0.00,,,0.00,Wunderground v.1.15,2013-05-21 16:18:00,
2013-05-21 12:19:00,63.9,60.6,29.79,NE,37,0.0,3.0,89,0.00,,,0.00,Wunderground v.1.15,2013-05-21 16:19:00,
2013-05-21 12:20:00,63.9,60.6,29.79,NE,37,2.0,2.0,89,0.00,,,0.00,Wunderground v.1.15,2013-05-21 16:20:00,
2013-05-21 12:23:00,63.7,60.4,29.80,North,0,1.0,5.0,89,0.00,,,0.00,Wunderground v.1.15,2013-05-21 16:23:00,
2013-05-21 12:25:00,63.7,60.4,29.80,NE,55,5.0,5.0,89,0.00,,,0.00,Wunderground v.1.15,2013-05-21 16:25:00,
2013-05-21 12:26:00,63.7,60.4,29.80,NE,55,5.0,5.0,89,0.00,,,0.00,Wunderground v.1.15,2013-05-21 16:26:00,
2013-05-21 12:28:00,64.2,60.9,29.80,ENE,65,1.0,5.0,89,0.00,,,0.00,Wunderground v.1.15,2013-05-21 16:28:00,
2013-05-21 12:29:00,64.2,60.9,29.80,ENE,65,1.0,5.0,89,0.00,,,0.00,Wunderground v.1.15,2013-05-21 16:29:00,
2013-05-21 12:31:00,64.2,60.9,29.80,NE,48,2.0,5.0,89,0.00,,,0.00,Wunderground v.1.15,2013-05-21 16:31:00,
2013-05-21 12:32:00,64.2,60.9,29.80,NNE,20,2.0,5.0,89,0.00,,,0.00,Wunderground v.1.15,2013-05-21 16:32:00,
2013-05-21 12:34:00,64.0,60.7,29.80,ENE,64,3.0,5.0,89,0.00,,,0.00,Wunderground v.1.15,2013-05-21 16:34:00,
2013-05-21 12:36:00,64.0,60.7,29.80,ENE,64,3.0,5.0,89,0.00,,,0.00,Wunderground v.1.15,2013-05-21 16:36:00,
2013-05-21 12:37:00,64.0,60.7,29.80,ENE,64,0.0,5.0,89,0.00,,,0.00,Wunderground v.1.15,2013-05-21 16:37:00,
2013-05-21 12:39:00,64.0,60.7,29.80,ENE,64,2.0,5.0,89,0.00,,,0.00,Wunderground v.1.15,2013-05-21 16:39:00,
2013-05-21 12:41:00,63.7,59.4,29.80,NE,48,3.0,7.0,86,0.00,,,0.00,Wunderground v.1.15,2013-05-21 16:41:00,
2013-05-21 12:43:00,63.4,59.1,29.80,NE,37,2.0,7.0,86,0.00,,,0.00,Wunderground v.1.15,2013-05-21 16:43:00,
2013-05-21 12:44:00,63.4,59.1,29.80,NE,41,3.0,7.0,86,0.00,,,0.00,Wunderground v.1.15,2013-05-21 16:44:00,
2013-05-21 12:45:00,63.4,59.1,29.80,NE,51,5.0,7.0,86,0.00,,,0.00,Wunderground v.1.15,2013-05-21 16:45:00,
2013-05-21 12:46:00,63.4,59.1,29.80,NE,48,3.0,7.0,86,0.00,,,0.00,Wunderground v.1.15,2013-05-21 16:46:00,
2013-05-21 12:48:00,63.4,59.1,29.80,NE,47,5.0,7.0,86,0.00,,,0.00,Wunderground v.1.15,2013-05-21 16:48:00,
2013-05-21 12:49:00,63.4,59.1,29.80,NE,47,5.0,7.0,86,0.00,,,0.00,Wunderground v.1.15,2013-05-21 16:49:00,
2013-05-21 12:50:00,63.4,59.1,29.80,NNE,30,5.0,5.0,86,0.00,,,0.00,Wunderground v.1.15,2013-05-21 16:50:00,
2013-05-21 12:51:00,63.4,59.1,29.80,NE,51,3.0,5.0,86,0.00,,,0.00,Wunderground v.1.15,2013-05-21 16:51:00,
2013-05-21 12:52:00,63.2,58.9,29.80,NE,51,1.0,5.0,86,0.00,,,0.00,Wunderground v.1.15,2013-05-21 16:52:00,
2013-05-21 12:54:00,63.2,58.9,29.80,ENE,58,1.0,5.0,86,0.00,,,0.00,Wunderground v.1.15,2013-05-21 16:54:00,
2013-05-21 12:56:00,63.2,58.9,29.80,ENE,62,2.0,5.0,86,0.00,,,0.00,Wunderground v.1.15,2013-05-21 16:56:00,
2013-05-21 12:57:00,63.4,59.1,29.80,East,86,0.0,5.0,86,0.00,,,0.00,Wunderground v.1.15,2013-05-21 16:57:00,
2013-05-21 12:58:00,63.4,59.1,29.80,East,86,0.0,5.0,86,0.00,,,0.00,Wunderground v.1.15,2013-05-21 16:58:00,
2013-05-21 12:59:00,63.4,59.1,29.80,East,86,0.0,5.0,86,0.00,,,0.00,Wunderground v.1.15,2013-05-21 16:59:00,
2013-05-21 13:03:00,63.5,59.2,29.80,ENE,78,2.0,3.0,86,0.00,,,0.00,Wunderground v.1.15,2013-05-21 17:03:00,
2013-05-21 13:04:00,63.5,59.2,29.80,ENE,69,3.0,3.0,86,0.00,,,0.00,Wunderground v.1.15,2013-05-21 17:04:00,
2013-05-21 13:06:00,63.5,59.2,29.81,ENE,69,3.0,3.0,86,0.00,,,0.00,Wunderground v.1.15,2013-05-21 17:06:00,
2013-05-21 13:08:00,63.5,59.2,29.81,NE,40,0.0,3.0,86,0.00,,,0.00,Wunderground v.1.15,2013-05-21 17:08:00,
2013-05-21 13:09:00,63.9,59.6,29.81,NE,41,2.0,5.0,86,0.00,,,0.00,Wunderground v.1.15,2013-05-21 17:09:00,
2013-05-21 13:10:00,63.9,59.6,29.81,NE,41,2.0,2.0,86,0.00,,,0.00,Wunderground v.1.15,2013-05-21 17:10:00,
2013-05-21 13:11:00,63.9,59.6,29.81,NE,41,2.0,2.0,86,0.00,,,0.00,Wunderground v.1.15,2013-05-21 17:11:00,
2013-05-21 13:13:00,63.9,59.6,29.81,NE,48,6.0,6.0,86,0.00,,,0.00,Wunderground v.1.15,2013-05-21 17:13:00,
2013-05-21 13:14:00,63.9,59.6,29.81,ENE,68,3.0,6.0,86,0.00,,,0.00,Wunderground v.1.15,2013-05-21 17:14:00,
2013-05-21 13:16:00,64.5,60.2,29.81,ENE,62,2.0,6.0,86,0.00,,,0.00,Wunderground v.1.15,2013-05-21 17:16:00,
2013-05-21 13:17:00,64.5,60.2,29.81,ENE,62,2.0,6.0,86,0.00,,,0.00,Wunderground v.1.15,2013-05-21 17:17:00,
2013-05-21 13:18:00,64.8,60.5,29.81,NNE,31,7.0,7.0,86,0.00,,,0.00,Wunderground v.1.15,2013-05-21 17:18:00,
2013-05-21 13:20:00,64.8,58.5,29.81,NE,54,1.0,3.0,80,0.00,,,0.00,Wunderground v.1.15,2013-05-21 17:20:00,
2013-05-21 13:22:00,64.5,58.2,29.81,ENE,64,7.0,8.0,80,0.00,,,0.00,Wunderground v.1.15,2013-05-21 17:22:00,
2013-05-21 13:23:00,64.5,58.2,29.81,NNE,16,1.0,8.0,80,0.00,,,0.00,Wunderground v.1.15,2013-05-21 17:23:00,
2013-05-21 13:24:00,64.5,58.2,29.81,NE,44,3.0,8.0,80,0.00,,,0.00,Wunderground v.1.15,2013-05-21 17:24:00,
2013-05-21 13:25:00,63.9,58.0,29.81,NNE,16,5.0,8.0,81,0.00,,,0.00,Wunderground v.1.15,2013-05-21 17:25:00,
2013-05-21 13:26:00,63.9,58.0,29.81,NE,34,6.0,8.0,81,0.00,,,0.00,Wunderground v.1.15,2013-05-21 17:26:00,
2013-05-21 13:28:00,63.4,57.1,29.81,ENE,64,2.0,8.0,80,0.00,,,0.00,Wunderground v.1.15,2013-05-21 17:28:00,
2013-05-21 13:29:00,63.1,56.8,29.81,NE,41,4.0,8.0,80,0.00,,,0.00,Wunderground v.1.15,2013-05-21 17:29:00,
2013-05-21 13:30:00,63.1,57.5,29.81,NE,44,1.0,6.0,82,0.00,,,0.00,Wunderground v.1.15,2013-05-21 17:30:00,
2013-05-21 13:31:00,62.9,57.3,29.81,NE,44,1.0,6.0,82,0.00,,,0.00,Wunderground v.1.15,2013-05-21 17:31:00,
2013-05-21 13:34:00,63.1,57.5,29.81,ENE,58,3.0,6.0,82,0.00,,,0.00,Wunderground v.1.15,2013-05-21 17:34:00,
2013-05-21 13:36:00,63.1,57.5,29.80,ENE,68,2.0,7.0,82,0.00,,,0.00,Wunderground v.1.15,2013-05-21 17:36:00,
2013-05-21 13:37:00,63.1,57.9,29.80,ENE,72,1.0,7.0,83,0.00,,,0.00,Wunderground v.1.15,2013-05-21 17:37:00,
2013-05-21 13:39:00,63.4,57.8,29.80,ENE,72,0.0,7.0,82,0.00,,,0.00,Wunderground v.1.15,2013-05-21 17:39:00,
2013-05-21 13:41:00,63.9,58.3,29.80,NE,51,2.0,3.0,82,0.00,,,0.00,Wunderground v.1.15,2013-05-21 17:41:00,
2013-05-21 13:42:00,64.2,58.2,29.80,NE,51,1.0,3.0,81,0.00,,,0.00,Wunderground v.1.15,2013-05-21 17:42:00,
2013-05-21 13:45:00,64.8,58.1,29.80,ENE,78,1.0,5.0,79,0.00,,,0.00,Wunderground v.1.15,2013-05-21 17:45:00,
2013-05-21 13:47:00,65.0,58.3,29.80,WNW,291,2.0,5.0,79,0.00,,,0.00,Wunderground v.1.15,2013-05-21 17:47:00,
2013-05-21 13:48:00,65.2,58.2,29.80,WNW,302,1.0,5.0,78,0.00,,,0.00,Wunderground v.1.15,2013-05-21 17:48:00,
2013-05-21 13:50:00,65.5,58.1,29.78,NW,308,0.0,1.0,77,0.00,,,0.00,Wunderground v.1.15,2013-05-21 17:50:00,
2013-05-21 13:52:00,65.5,58.1,29.78,North,0,2.0,2.0,77,0.00,,,0.00,Wunderground v.1.15,2013-05-21 17:52:00,
2013-05-21 13:53:00,65.6,58.2,29.78,NE,54,2.0,2.0,77,0.00,,,0.00,Wunderground v.1.15,2013-05-21 17:53:00,
2013-05-21 13:54:00,65.6,58.2,29.78,NE,54,2.0,2.0,77,0.00,,,0.00,Wunderground v.1.15,2013-05-21 17:54:00,
2013-05-21 13:57:00,66.0,58.9,29.78,NE,51,1.0,5.0,78,0.00,,,0.00,Wunderground v.1.15,2013-05-21 17:57:00,
2013-05-21 13:58:00,66.1,59.0,29.78,NE,48,7.0,7.0,78,0.00,,,0.00,Wunderground v.1.15,2013-05-21 17:58:00,
2013-05-21 13:59:00,66.1,59.0,29.78,NE,48,7.0,7.0,78,0.00,,,0.00,Wunderground v.1.15,2013-05-21 17:59:00,
2013-05-21 14:00:00,66.1,59.0,29.78,NNE,31,6.0,6.0,78,0.00,,,0.00,Wunderground v.1.15,2013-05-21 18:00:00,
2013-05-21 14:02:00,66.0,58.9,29.78,NE,37,5.0,6.0,78,0.00,,,0.00,Wunderground v.1.15,2013-05-21 18:02:00,
2013-05-21 14:04:00,66.0,58.9,29.78,NE,37,5.0,6.0,78,0.00,,,0.00,Wunderground v.1.15,2013-05-21 18:04:00,
2013-05-21 14:05:00,66.0,58.9,29.78,ENE,68,2.0,6.0,78,0.00,,,0.00,Wunderground v.1.15,2013-05-21 18:05:00,
2013-05-21 14:06:00,66.0,58.9,29.79,NE,51,7.0,7.0,78,0.00,,,0.00,Wunderground v.1.15,2013-05-21 18:06:00,
2013-05-21 14:07:00,66.1,58.3,29.79,NE,54,5.0,7.0,76,0.00,,,0.00,Wunderground v.1.15,2013-05-21 18:07:00,
2013-05-21 14:09:00,66.1,58.3,29.79,NNE,31,2.0,7.0,76,0.00,,,0.00,Wunderground v.1.15,2013-05-21 18:09:00,
2013-05-21 14:11:00,66.1,58.3,29.79,NE,34,3.0,4.0,76,0.00,,,0.00,Wunderground v.1.15,2013-05-21 18:11:00,
2013-05-21 14:13:00,66.1,58.3,29.79,ENE,69,0.0,4.0,76,0.00,,,0.00,Wunderground v.1.15,2013-05-21 18:13:00,
2013-05-21 14:14:00,66.4,58.6,29.79,ENE,58,2.0,4.0,76,0.00,,,0.00,Wunderground v.1.15,2013-05-21 18:14:00,
2013-05-21 14:16:00,66.4,58.6,29.79,ENE,58,1.0,4.0,76,0.00,,,0.00,Wunderground v.1.15,2013-05-21 18:16:00,
2013-05-21 14:17:00,66.4,58.6,29.79,ENE,58,3.0,4.0,76,0.00,,,0.00,Wunderground v.1.15,2013-05-21 18:17:00,
2013-05-21 14:18:00,66.9,59.1,29.79,ENE,72,3.0,4.0,76,0.00,,,0.00,Wunderground v.1.15,2013-05-21 18:18:00,
2013-05-21 14:19:00,66.9,59.1,29.79,ENE,72,3.0,4.0,76,0.00,,,0.00,Wunderground v.1.15,2013-05-21 18:19:00,
2013-05-21 14:21:00,66.9,58.7,29.80,NNE,31,5.0,6.0,75,0.00,,,0.00,Wunderground v.1.15,2013-05-21 18:21:00,
2013-05-21 14:22:00,67.1,58.5,29.80,ENE,72,2.0,6.0,74,0.00,,,0.00,Wunderground v.1.15,2013-05-21 18:22:00,
2013-05-21 14:24:00,66.9,58.3,29.80,NE,44,3.0,7.0,74,0.00,,,0.00,Wunderground v.1.15,2013-05-21 18:24:00,
2013-05-21 14:25:00,66.9,58.3,29.80,NE,44,3.0,7.0,74,0.00,,,0.00,Wunderground v.1.15,2013-05-21 18:25:00,
2013-05-21 14:27:00,66.9,59.5,29.80,NE,41,1.0,7.0,77,0.00,,,0.00,Wunderground v.1.15,2013-05-21 18:27:00,
2013-05-21 14:30:00,66.8,58.6,29.80,ENE,65,5.0,5.0,75,0.00,,,0.00,Wunderground v.1.15,2013-05-21 18:30:00,
2013-05-21 14:31:00,66.8,58.6,29.80,ENE,65,5.0,5.0,75,0.00,,,0.00,Wunderground v.1.15,2013-05-21 18:31:00,
2013-05-21 14:33:00,66.6,58.4,29.80,NE,34,5.0,8.0,75,0.00,,,0.00,Wunderground v.1.15,2013-05-21 18:33:00,
2013-05-21 14:34:00,66.6,58.4,29.80,East,79,2.0,8.0,75,0.00,,,0.00,Wunderground v.1.15,2013-05-21 18:34:00,
2013-05-21 14:36:00,66.3,58.1,29.80,WSW,239,1.0,8.0,75,0.00,,,0.00,Wunderground v.1.15,2013-05-21 18:36:00,
2013-05-21 14:37:00,66.3,58.1,29.80,WSW,239,1.0,8.0,75,0.00,,,0.00,Wunderground v.1.15,2013-05-21 18:37:00,
2013-05-21 14:39:00,66.1,57.9,29.80,NE,44,1.0,8.0,75,0.00,,,0.00,Wunderground v.1.15,2013-05-21 18:39:00,
2013-05-21 14:41:00,66.3,58.5,29.80,NE,51,4.0,5.0,76,0.00,,,0.00,Wunderground v.1.15,2013-05-21 18:41:00,
2013-05-21 14:42:00,66.3,58.1,29.80,NNE,31,5.0,6.0,75,0.00,,,0.00,Wunderground v.1.15,2013-05-21 18:42:00,
2013-05-21 14:43:00,66.3,58.1,29.80,NE,34,2.0,6.0,75,0.00,,,0.00,Wunderground v.1.15,2013-05-21 18:43:00,
2013-05-21 14:44:00,66.3,58.1,29.80,NE,34,2.0,6.0,75,0.00,,,0.00,Wunderground v.1.15,2013-05-21 18:44:00,
2013-05-21 14:46:00,66.0,57.8,29.80,ENE,58,11.0,11.0,75,0.00,,,0.00,Wunderground v.1.15,2013-05-21 18:46:00,
2013-05-21 14:48:00,65.5,57.4,29.80,ENE,62,1.0,11.0,75,0.00,,,0.00,Wunderground v.1.15,2013-05-21 18:48:00,
2013-05-21 14:49:00,65.5,57.4,29.80,ENE,62,1.0,11.0,75,0.00,,,0.00,Wunderground v.1.15,2013-05-21 18:49:00,
2013-05-21 14:50:00,65.5,57.4,29.80,SSW,212,3.0,3.0,75,0.00,,,0.00,Wunderground v.1.15,2013-05-21 18:50:00,
2013-05-21 14:53:00,65.3,57.2,29.81,NE,44,1.0,4.0,75,0.00,,,0.00,Wunderground v.1.15,2013-05-21 18:53:00,
2013-05-21 14:54:00,65.2,57.1,29.81,ENE,58,2.0,4.0,75,0.00,,,0.00,Wunderground v.1.15,2013-05-21 18:54:00,
2013-05-21 14:55:00,65.0,56.9,29.81,ENE,68,3.0,4.0,75,0.00,,,0.00,Wunderground v.1.15,2013-05-21 18:55:00,
2013-05-21 14:58:00,64.8,57.1,29.81,ENE,65,2.0,4.0,76,0.00,,,0.00,Wunderground v.1.15,2013-05-21 18:58:00,
2013-05-21 14:59:00,64.7,57.3,29.81,NE,51,2.0,4.0,77,0.00,,,0.00,Wunderground v.1.15,2013-05-21 18:59:00,
2013-05-21 15:00:00,64.7,57.3,29.81,NE,51,1.0,2.0,77,0.00,,,0.00,Wunderground v.1.15,2013-05-21 19:00:00,
2013-05-21 15:01:00,64.7,57.3,29.81,ENE,65,1.0,3.0,77,0.00,,,0.00,Wunderground v.1.15,2013-05-21 19:01:00,
2013-05-21 15:02:00,64.5,57.1,29.81,ENE,65,3.0,3.0,77,0.00,,,0.00,Wunderground v.1.15,2013-05-21 19:02:00,
2013-05-21 15:03:00,64.5,57.1,29.81,ENE,65,3.0,3.0,77,0.00,,,0.00,Wunderground v.1.15,2013-05-21 19:03:00,
2013-05-21 15:05:00,64.5,57.1,29.81,ENE,72,3.0,3.0,77,0.00,,,0.00,Wunderground v.1.15,2013-05-21 19:05:00,
2013-05-21 15:06:00,64.5,57.1,29.81,SE,145,0.0,3.0,77,0.00,,,0.00,Wunderground v.1.15,2013-05-21 19:06:00,
2013-05-21 15:08:00,64.5,57.1,29.81,ENE,75,0.0,3.0,77,0.00,,,0.00,Wunderground v.1.15,2013-05-21 19:08:00,
2013-05-21 15:10:00,64.5,57.1,29.81,ENE,75,0.0,2.0,77,0.00,,,0.00,Wunderground v.1.15,2013-05-21 19:10:00,
2013-05-21 15:12:00,64.7,58.0,29.81,ENE,75,1.0,3.0,79,0.00,,,0.00,Wunderground v.1.15,2013-05-21 19:12:00,
2013-05-21 15:14:00,64.5,56.8,29.81,ENE,71,5.0,6.0,76,0.00,,,0.00,Wunderground v.1.15,2013-05-21 19:14:00,
2013-05-21 15:15:00,64.5,57.5,29.81,ENE,68,1.0,6.0,78,0.00,,,0.00,Wunderground v.1.15,2013-05-21 19:15:00,
2013-05-21 15:16:00,64.5,57.5,29.81,ENE,68,1.0,6.0,78,0.00,,,0.00,Wunderground v.1.15,2013-05-21 19:16:00,
2013-05-21 15:19:00,64.5,57.5,29.81,ENE,65,1.0,6.0,78,0.00,,,0.00,Wunderground v.1.15,2013-05-21 19:19:00,
2013-05-21 15:20:00,64.5,57.1,29.81,ENE,72,1.0,2.0,77,0.00,,,0.00,Wunderground v.1.15,2013-05-21 19:20:00,
2013-05-21 15:21:00,64.5,57.1,29.80,ENE,72,1.0,2.0,77,0.00,,,0.00,Wunderground v.1.15,2013-05-21 19:21:00,
2013-05-21 15:25:00,64.7,57.3,29.80,ENE,72,1.0,2.0,77,0.00,,,0.00,Wunderground v.1.15,2013-05-21 19:25:00,
2013-05-21 15:26:00,64.7,57.3,29.80,ENE,72,2.0,2.0,77,0.00,,,0.00,Wunderground v.1.15,2013-05-21 19:26:00,
2013-05-21 15:27:00,64.7,57.3,29.80,ENE,72,2.0,2.0,77,0.00,,,0.00,Wunderground v.1.15,2013-05-21 19:27:00,
2013-05-21 15:30:00,65.2,58.2,29.80,ENE,69,2.0,4.0,78,0.00,,,0.00,Wunderground v.1.15,2013-05-21 19:30:00,
2013-05-21 15:31:00,65.2,58.2,29.80,NNW,329,3.0,4.0,78,0.00,,,0.00,Wunderground v.1.15,2013-05-21 19:31:00,
2013-05-21 15:32:00,65.3,57.5,29.80,NE,51,2.0,5.0,76,0.00,,,0.00,Wunderground v.1.15,2013-05-21 19:32:00,
2013-05-21 15:33:00,65.5,57.7,29.80,NE,51,3.0,5.0,76,0.00,,,0.00,Wunderground v.1.15,2013-05-21 19:33:00,
2013-05-21 15:36:00,65.8,57.3,29.79,ENE,72,6.0,7.0,74,0.00,,,0.00,Wunderground v.1.15,2013-05-21 19:36:00,
2013-05-21 15:38:00,66.0,58.2,29.79,NE,55,2.0,7.0,76,0.00,,,0.00,Wunderground v.1.15,2013-05-21 19:38:00,
2013-05-21 15:39:00,66.1,58.3,29.79,East,79,1.0,7.0,76,0.00,,,0.00,Wunderground v.1.15,2013-05-21 19:39:00,
2013-05-21 15:41:00,66.6,59.2,29.79,ENE,78,1.0,3.0,77,0.00,,,0.00,Wunderground v.1.15,2013-05-21 19:41:00,
2013-05-21 15:43:00,67.1,59.3,29.79,ENE,78,2.0,3.0,76,0.00,,,0.00,Wunderground v.1.15,2013-05-21 19:43:00,
2013-05-21 15:45:00,67.4,59.2,29.79,ENE,78,2.0,3.0,75,0.00,,,0.00,Wunderground v.1.15,2013-05-21 19:45:00,
2013-05-21 15:47:00,67.8,59.2,29.79,ENE,78,0.0,3.0,74,0.00,,,0.00,Wunderground v.1.15,2013-05-21 19:47:00,
2013-05-21 15:48:00,67.8,59.2,29.79,ENE,78,1.0,3.0,74,0.00,,,0.00,Wunderground v.1.15,2013-05-21 19:48:00,
2013-05-21 15:49:00,67.9,59.3,29.79,ENE,78,1.0,3.0,74,0.00,,,0.00,Wunderground v.1.15,2013-05-21 19:49:00,
2013-05-21 15:50:00,67.9,59.3,29.79,ENE,78,0.0,1.0,74,0.00,,,0.00,Wunderground v.1.15,2013-05-21 19:50:00,
2013-05-21 15:51:00,68.3,58.9,29.78,NE,40,3.0,3.0,72,0.00,,,0.00,Wunderground v.1.15,2013-05-21 19:51:00,
2013-05-21 15:53:00,68.3,58.9,29.78,NE,40,1.0,3.0,72,0.00,,,0.00,Wunderground v.1.15,2013-05-21 19:53:00,
2013-05-21 15:54:00,68.3,58.9,29.78,NE,40,1.0,3.0,72,0.00,,,0.00,Wunderground v.1.15,2013-05-21 19:54:00,
2013-05-21 15:55:00,68.3,58.9,29.78,NE,40,1.0,3.0,72,0.00,,,0.00,Wunderground v.1.15,2013-05-21 19:55:00,
2013-05-21 15:56:00,68.9,59.1,29.78,SSW,192,0.0,3.0,71,0.00,,,0.00,Wunderground v.1.15,2013-05-21 19:56:00,
2013-05-21 15:58:00,68.9,59.1,29.78,WNW,295,1.0,3.0,71,0.00,,,0.00,Wunderground v.1.15,2013-05-21 19:58:00,
2013-05-21 15:59:00,68.9,59.1,29.78,North,349,1.0,3.0,71,0.00,,,0.00,Wunderground v.1.15,2013-05-21 19:59:00,
2013-05-21 16:01:00,68.9,59.1,29.78,NE,41,0.0,1.0,71,0.00,,,0.00,Wunderground v.1.15,2013-05-21 20:01:00,
2013-05-21 16:02:00,68.9,59.1,29.78,NE,41,0.0,1.0,71,0.00,,,0.00,Wunderground v.1.15,2013-05-21 20:02:00,
2013-05-21 16:03:00,69.3,59.5,29.78,NE,41,1.0,1.0,71,0.00,,,0.00,Wunderground v.1.15,2013-05-21 20:03:00,
2013-05-21 16:04:00,69.3,59.5,29.78,NE,41,1.0,1.0,71,0.00,,,0.00,Wunderground v.1.15,2013-05-21 20:04:00,
2013-05-21 16:05:00,69.1,59.3,29.78,NE,55,1.0,1.0,71,0.00,,,0.00,Wunderground v.1.15,2013-05-21 20:05:00,
2013-05-21 16:06:00,69.1,59.3,29.77,NE,55,1.0,1.0,71,0.00,,,0.00,Wunderground v.1.15,2013-05-21 20:06:00,
2013-05-21 16:07:00,69.1,59.3,29.77,NE,55,1.0,1.0,71,0.00,,,0.00,Wunderground v.1.15,2013-05-21 20:07:00,
2013-05-21 16:08:00,69.1,59.3,29.77,NW,312,0.0,1.0,71,0.00,,,0.00,Wunderground v.1.15,2013-05-21 20:08:00,
2013-05-21 16:10:00,69.1,59.3,29.77,NW,313,0.0,1.0,71,0.00,,,0.00,Wunderground v.1.15,2013-05-21 20:10:00,
2013-05-21 16:12:00,69.1,59.3,29.77,NW,313,0.0,1.0,71,0.00,,,0.00,Wunderground v.1.15,2013-05-21 20:12:00,
2013-05-21 16:14:00,69.1,59.3,29.77,NW,313,0.0,1.0,71,0.00,,,0.00,Wunderground v.1.15,2013-05-21 20:14:00,
2013-05-21 16:15:00,69.1,59.3,29.77,NW,313,1.0,1.0,71,0.00,,,0.00,Wunderground v.1.15,2013-05-21 20:15:00,
2013-05-21 16:16:00,69.1,59.3,29.77,NW,313,2.0,2.0,71,0.00,,,0.00,Wunderground v.1.15,2013-05-21 20:16:00,
2013-05-21 16:18:00,69.1,59.3,29.77,NW,313,0.0,2.0,71,0.00,,,0.00,Wunderground v.1.15,2013-05-21 20:18:00,
2013-05-21 16:20:00,69.1,59.3,29.77,NW,313,0.0,0.0,71,0.00,,,0.00,Wunderground v.1.15,2013-05-21 20:20:00,
2013-05-21 16:21:00,69.1,59.3,29.77,NW,313,0.0,0.0,71,0.00,,,0.00,Wunderground v.1.15,2013-05-21 20:21:00,
2013-05-21 16:24:00,68.8,59.0,29.77,NW,313,0.0,0.0,71,0.00,,,0.00,Wunderground v.1.15,2013-05-21 20:24:00,
2013-05-21 16:25:00,68.8,59.0,29.77,NW,313,0.0,0.0,71,0.00,,,0.00,Wunderground v.1.15,2013-05-21 20:25:00,
2013-05-21 16:26:00,68.8,59.0,29.77,NW,313,0.0,0.0,71,0.00,,,0.00,Wunderground v.1.15,2013-05-21 20:26:00,
2013-05-21 16:30:00,68.8,59.0,29.77,NW,313,1.0,1.0,71,0.00,,,0.00,Wunderground v.1.15,2013-05-21 20:30:00,
2013-05-21 16:31:00,68.8,59.0,29.77,NW,313,0.0,1.0,71,0.00,,,0.00,Wunderground v.1.15,2013-05-21 20:31:00,
2013-05-21 16:32:00,68.8,59.0,29.77,NW,313,0.0,1.0,71,0.00,,,0.00,Wunderground v.1.15,2013-05-21 20:32:00,
2013-05-21 16:36:00,68.9,59.1,29.76,NW,313,0.0,1.0,71,0.00,,,0.00,Wunderground v.1.15,2013-05-21 20:36:00,
2013-05-21 16:37:00,68.9,59.1,29.76,NW,313,0.0,1.0,71,0.00,,,0.00,Wunderground v.1.15,2013-05-21 20:37:00,
2013-05-21 16:38:00,68.9,59.1,29.76,NW,313,2.0,2.0,71,0.00,,,0.00,Wunderground v.1.15,2013-05-21 20:38:00,
2013-05-21 16:41:00,68.9,59.1,29.76,NW,313,2.0,2.0,71,0.00,,,0.00,Wunderground v.1.15,2013-05-21 20:41:00,
2013-05-21 16:42:00,68.9,58.7,29.76,North,6,2.0,2.0,70,0.00,,,0.00,Wunderground v.1.15,2013-05-21 20:42:00,
2013-05-21 16:44:00,68.9,58.7,29.76,North,6,2.0,2.0,70,0.00,,,0.00,Wunderground v.1.15,2013-05-21 20:44:00,
2013-05-21 16:46:00,68.9,58.7,29.76,North,6,2.0,2.0,70,0.00,,,0.00,Wunderground v.1.15,2013-05-21 20:46:00,
2013-05-21 16:47:00,68.9,58.7,29.76,ENE,58,2.0,2.0,70,0.00,,,0.00,Wunderground v.1.15,2013-05-21 20:47:00,
2013-05-21 16:48:00,69.6,59.4,29.76,ENE,58,1.0,2.0,70,0.00,,,0.00,Wunderground v.1.15,2013-05-21 20:48:00,
2013-05-21 16:50:00,69.6,59.4,29.76,ENE,58,1.0,2.0,70,0.00,,,0.00,Wunderground v.1.15,2013-05-21 20:50:00,
2013-05-21 16:51:00,69.6,59.4,29.76,ENE,58,0.0,2.0,70,0.00,,,0.00,Wunderground v.1.15,2013-05-21 20:51:00,
2013-05-21 16:52:00,69.6,59.4,29.76,ENE,58,1.0,2.0,70,0.00,,,0.00,Wunderground v.1.15,2013-05-21 20:52:00,
2013-05-21 16:53:00,69.6,59.4,29.76,ENE,58,1.0,2.0,70,0.00,,,0.00,Wunderground v.1.15,2013-05-21 20:53:00,
2013-05-21 16:56:00,69.6,59.4,29.76,ENE,58,0.0,2.0,70,0.00,,,0.00,Wunderground v.1.15,2013-05-21 20:56:00,
2013-05-21 16:57:00,69.6,59.4,29.76,ENE,58,0.0,2.0,70,0.00,,,0.00,Wunderground v.1.15,2013-05-21 20:57:00,
2013-05-21 16:58:00,69.9,59.7,29.76,ENE,58,1.0,2.0,70,0.00,,,0.00,Wunderground v.1.15,2013-05-21 20:58:00,
2013-05-21 16:59:00,69.9,59.7,29.76,ENE,58,3.0,3.0,70,0.00,,,0.00,Wunderground v.1.15,2013-05-21 20:59:00,
2013-05-21 17:01:00,69.9,59.7,29.76,ENE,58,3.0,3.0,70,0.00,,,0.00,Wunderground v.1.15,2013-05-21 21:01:00,
2013-05-21 17:02:00,69.9,59.7,29.76,ENE,58,3.0,3.0,70,0.00,,,0.00,Wunderground v.1.15,2013-05-21 21:02:00,
2013-05-21 17:03:00,69.9,59.7,29.76,ENE,58,3.0,3.0,70,0.00,,,0.00,Wunderground v.1.15,2013-05-21 21:03:00,
2013-05-21 17:04:00,69.9,59.7,29.76,ENE,58,3.0,3.0,70,0.00,,,0.00,Wunderground v.1.15,2013-05-21 21:04:00,
2013-05-21 17:06:00,69.9,59.7,29.75,ENE,58,3.0,3.0,70,0.00,,,0.00,Wunderground v.1.15,2013-05-21 21:06:00,
2013-05-21 17:07:00,69.9,59.7,29.75,ENE,58,3.0,3.0,70,0.00,,,0.00,Wunderground v.1.15,2013-05-21 21:07:00,
2013-05-21 17:09:00,69.9,59.7,29.75,ENE,58,1.0,3.0,70,0.00,,,0.00,Wunderground v.1.15,2013-05-21 21:09:00,
2013-05-21 17:11:00,69.9,59.7,29.75,ENE,58,2.0,2.0,70,0.00,,,0.00,Wunderground v.1.15,2013-05-21 21:11:00,
2013-05-21 17:12:00,69.9,59.7,29.75,ENE,58,2.0,2.0,70,0.00,,,0.00,Wunderground v.1.15,2013-05-21 21:12:00,
2013-05-21 17:14:00,69.9,59.7,29.75,ENE,58,0.0,2.0,70,0.00,,,0.00,Wunderground v.1.15,2013-05-21 21:14:00,
2013-05-21 17:16:00,69.9,59.7,29.75,ENE,58,0.0,2.0,70,0.00,,,0.00,Wunderground v.1.15,2013-05-21 21:16:00,
2013-05-21 17:17:00,69.9,59.7,29.75,ENE,58,0.0,2.0,70,0.00,,,0.00,Wunderground v.1.15,2013-05-21 21:17:00,
2013-05-21 17:19:00,69.9,59.7,29.75,ENE,58,0.0,2.0,70,0.00,,,0.00,Wunderground v.1.15,2013-05-21 21:19:00,
2013-05-21 17:20:00,69.9,59.7,29.75,ENE,58,0.0,1.0,70,0.00,,,0.00,Wunderground v.1.15,2013-05-21 21:20:00,
2013-05-21 17:22:00,69.9,59.7,29.75,ENE,58,1.0,3.0,70,0.00,,,0.00,Wunderground v.1.15,2013-05-21 21:22:00,
2013-05-21 17:23:00,69.9,59.7,29.75,ENE,58,1.0,3.0,70,0.00,,,0.00,Wunderground v.1.15,2013-05-21 21:23:00,
2013-05-21 17:26:00,69.9,59.3,29.75,ENE,58,0.0,3.0,69,0.00,,,0.00,Wunderground v.1.15,2013-05-21 21:26:00,
2013-05-21 17:28:00,70.1,59.5,29.75,ENE,58,3.0,3.0,69,0.00,,,0.00,Wunderground v.1.15,2013-05-21 21:28:00,
2013-05-21 17:29:00,70.1,59.5,29.75,ENE,58,1.0,3.0,69,0.00,,,0.00,Wunderground v.1.15,2013-05-21 21:29:00,
2013-05-21 17:30:00,70.1,59.5,29.75,ENE,58,2.0,2.0,69,0.00,,,0.00,Wunderground v.1.15,2013-05-21 21:30:00,
2013-05-21 17:31:00,70.1,59.5,29.75,ENE,58,2.0,2.0,69,0.00,,,0.00,Wunderground v.1.15,2013-05-21 21:31:00,
2013-05-21 17:32:00,70.3,59.6,29.75,ENE,58,0.0,2.0,69,0.00,,,0.00,Wunderground v.1.15,2013-05-21 21:32:00,
2013-05-21 17:33:00,70.3,59.6,29.75,ENE,58,0.0,2.0,69,0.00,,,0.00,Wunderground v.1.15,2013-05-21 21:33:00,
2013-05-21 17:35:00,70.3,59.6,29.75,ENE,58,0.0,2.0,69,0.00,,,0.00,Wunderground v.1.15,2013-05-21 21:35:00,
2013-05-21 17:36:00,70.3,59.6,29.75,ENE,58,0.0,2.0,69,0.00,,,0.00,Wunderground v.1.15,2013-05-21 21:36:00,
2013-05-21 17:37:00,70.3,59.6,29.75,ENE,58,1.0,2.0,69,0.00,,,0.00,Wunderground v.1.15,2013-05-21 21:37:00,
2013-05-21 17:39:00,70.3,59.6,29.75,ENE,58,1.0,2.0,69,0.00,,,0.00,Wunderground v.1.15,2013-05-21 21:39:00,
2013-05-21 17:40:00,70.3,59.6,29.75,ENE,58,1.0,1.0,69,0.00,,,0.00,Wunderground v.1.15,2013-05-21 21:40:00,
2013-05-21 17:41:00,70.3,59.6,29.75,ENE,58,1.0,1.0,69,0.00,,,0.00,Wunderground v.1.15,2013-05-21 21:41:00,
2013-05-21 17:42:00,70.3,59.6,29.75,ENE,58,1.0,1.0,69,0.00,,,0.00,Wunderground v.1.15,2013-05-21 21:42:00,
2013-05-21 17:44:00,70.3,59.6,29.75,ENE,58,0.0,1.0,69,0.00,,,0.00,Wunderground v.1.15,2013-05-21 21:44:00,
2013-05-21 17:45:00,70.3,59.6,29.75,ENE,58,0.0,1.0,69,0.00,,,0.00,Wunderground v.1.15,2013-05-21 21:45:00,
2013-05-21 17:46:00,70.3,59.6,29.75,ENE,58,0.0,1.0,69,0.00,,,0.00,Wunderground v.1.15,2013-05-21 21:46:00,
2013-05-21 17:47:00,70.3,59.2,29.75,ENE,58,0.0,1.0,68,0.00,,,0.00,Wunderground v.1.15,2013-05-21 21:47:00,
2013-05-21 17:48:00,70.3,59.2,29.75,ENE,58,0.0,1.0,68,0.00,,,0.00,Wunderground v.1.15,2013-05-21 21:48:00,
2013-05-21 17:50:00,70.3,59.2,29.75,ENE,58,2.0,3.0,68,0.00,,,0.00,Wunderground v.1.15,2013-05-21 21:50:00,
2013-05-21 17:52:00,70.3,59.2,29.75,ENE,58,2.0,3.0,68,0.00,,,0.00,Wunderground v.1.15,2013-05-21 21:52:00,
2013-05-21 17:53:00,70.3,59.2,29.75,ENE,58,2.0,3.0,68,0.00,,,0.00,Wunderground v.1.15,2013-05-21 21:53:00,
2013-05-21 17:55:00,70.3,59.2,29.75,ENE,58,2.0,3.0,68,0.00,,,0.00,Wunderground v.1.15,2013-05-21 21:55:00,
2013-05-21 17:56:00,70.3,59.2,29.75,ENE,58,2.0,3.0,68,0.00,,,0.00,Wunderground v.1.15,2013-05-21 21:56:00,
2013-05-21 17:57:00,70.3,59.2,29.75,ENE,58,2.0,3.0,68,0.00,,,0.00,Wunderground v.1.15,2013-05-21 21:57:00,
2013-05-21 17:58:00,70.3,59.2,29.75,ENE,58,2.0,3.0,68,0.00,,,0.00,Wunderground v.1.15,2013-05-21 21:58:00,
2013-05-21 18:00:00,70.3,59.2,29.75,ENE,58,1.0,2.0,68,0.00,,,0.00,Wunderground v.1.15,2013-05-21 22:00:00,
2013-05-21 18:01:00,70.3,59.2,29.75,ENE,58,1.0,2.0,68,0.00,,,0.00,Wunderground v.1.15,2013-05-21 22:01:00,
2013-05-21 18:02:00,70.3,59.2,29.75,ENE,58,1.0,2.0,68,0.00,,,0.00,Wunderground v.1.15,2013-05-21 22:02:00,
2013-05-21 18:03:00,70.3,59.2,29.75,ENE,58,1.0,2.0,68,0.00,,,0.00,Wunderground v.1.15,2013-05-21 22:03:00,
2013-05-21 18:06:00,70.3,59.2,29.74,ENE,58,1.0,2.0,68,0.00,,,0.00,Wunderground v.1.15,2013-05-21 22:06:00,
2013-05-21 18:07:00,70.3,59.2,29.74,ENE,58,1.0,2.0,68,0.00,,,0.00,Wunderground v.1.15,2013-05-21 22:07:00,
2013-05-21 18:08:00,70.3,59.2,29.74,ENE,58,1.0,2.0,68,0.00,,,0.00,Wunderground v.1.15,2013-05-21 22:08:00,
2013-05-21 18:09:00,70.3,59.2,29.74,ENE,58,1.0,2.0,68,0.00,,,0.00,Wunderground v.1.15,2013-05-21 22:09:00,
2013-05-21 18:11:00,70.3,59.2,29.74,ENE,58,1.0,1.0,68,0.00,,,0.00,Wunderground v.1.15,2013-05-21 22:11:00,
2013-05-21 18:12:00,70.3,59.2,29.74,ENE,58,1.0,1.0,68,0.00,,,0.00,Wunderground v.1.15,2013-05-21 22:12:00,
2013-05-21 18:13:00,70.3,59.2,29.74,ENE,58,1.0,1.0,68,0.00,,,0.00,Wunderground v.1.15,2013-05-21 22:13:00,
2013-05-21 18:14:00,70.3,59.2,29.74,ENE,58,1.0,1.0,68,0.00,,,0.00,Wunderground v.1.15,2013-05-21 22:14:00,
2013-05-21 18:16:00,70.3,59.2,29.74,ENE,58,1.0,1.0,68,0.00,,,0.00,Wunderground v.1.15,2013-05-21 22:16:00,
2013-05-21 18:17:00,70.3,59.2,29.74,ENE,58,1.0,1.0,68,0.00,,,0.00,Wunderground v.1.15,2013-05-21 22:17:00,
2013-05-21 18:18:00,70.3,59.2,29.74,ENE,58,1.0,1.0,68,0.00,,,0.00,Wunderground v.1.15,2013-05-21 22:18:00,
2013-05-21 18:20:00,70.3,59.2,29.74,ENE,58,1.0,1.0,68,0.00,,,0.00,Wunderground v.1.15,2013-05-21 22:20:00,
2013-05-21 18:21:00,70.3,59.2,29.74,ENE,58,1.0,1.0,68,0.00,,,0.00,Wunderground v.1.15,2013-05-21 22:21:00,
2013-05-21 18:22:00,70.3,59.2,29.74,ENE,58,1.0,1.0,68,0.00,,,0.00,Wunderground v.1.15,2013-05-21 22:22:00,
2013-05-21 18:23:00,70.3,59.2,29.74,ENE,58,1.0,1.0,68,0.00,,,0.00,Wunderground v.1.15,2013-05-21 22:23:00,
2013-05-21 18:25:00,70.3,59.2,29.74,ENE,58,1.0,1.0,68,0.00,,,0.00,Wunderground v.1.15,2013-05-21 22:25:00,
2013-05-21 18:26:00,70.3,59.2,29.74,ENE,58,1.0,1.0,68,0.00,,,0.00,Wunderground v.1.15,2013-05-21 22:26:00,
2013-05-21 18:27:00,70.3,59.2,29.74,ENE,58,1.0,1.0,68,0.00,,,0.00,Wunderground v.1.15,2013-05-21 22:27:00,
2013-05-21 18:29:00,70.3,59.2,29.74,ENE,58,1.0,1.0,68,0.00,,,0.00,Wunderground v.1.15,2013-05-21 22:29:00,
2013-05-21 18:30:00,70.3,59.2,29.74,ENE,58,0.0,1.0,68,0.00,,,0.00,Wunderground v.1.15,2013-05-21 22:30:00,
2013-05-21 18:32:00,70.3,59.2,29.74,ENE,58,0.0,1.0,68,0.00,,,0.00,Wunderground v.1.15,2013-05-21 22:32:00,
2013-05-21 18:33:00,70.3,59.2,29.74,ENE,58,0.0,1.0,68,0.00,,,0.00,Wunderground v.1.15,2013-05-21 22:33:00,
2013-05-21 18:34:00,70.3,59.2,29.74,ENE,58,0.0,1.0,68,0.00,,,0.00,Wunderground v.1.15,2013-05-21 22:34:00,
2013-05-21 18:35:00,68.6,57.6,29.74,ENE,58,0.0,1.0,68,0.00,,,0.00,Wunderground v.1.15,2013-05-21 22:35:00,
2013-05-21 18:37:00,68.4,60.9,29.74,ENE,58,0.0,1.0,77,0.00,,,0.00,Wunderground v.1.15,2013-05-21 22:37:00,
2013-05-21 18:38:00,68.4,60.9,29.74,ENE,58,0.0,1.0,77,0.00,,,0.00,Wunderground v.1.15,2013-05-21 22:38:00,
2013-05-21 18:40:00,68.1,60.6,29.74,ENE,58,0.0,0.0,77,0.00,,,0.00,Wunderground v.1.15,2013-05-21 22:40:00,
2013-05-21 18:41:00,68.1,61.0,29.74,ENE,58,0.0,0.0,78,0.00,,,0.00,Wunderground v.1.15,2013-05-21 22:41:00,
2013-05-21 18:43:00,68.1,61.0,29.74,ENE,58,0.0,0.0,78,0.00,,,0.00,Wunderground v.1.15,2013-05-21 22:43:00,
2013-05-21 18:44:00,68.1,61.0,29.74,ENE,58,0.0,0.0,78,0.00,,,0.00,Wunderground v.1.15,2013-05-21 22:44:00,
2013-05-21 18:45:00,68.1,61.0,29.74,ENE,58,0.0,0.0,78,0.00,,,0.00,Wunderground v.1.15,2013-05-21 22:45:00,
2013-05-21 18:46:00,67.8,61.0,29.74,ENE,58,0.0,0.0,79,0.00,,,0.00,Wunderground v.1.15,2013-05-21 22:46:00,
2013-05-21 18:49:00,67.6,60.9,29.74,ENE,58,0.0,0.0,79,0.00,,,0.00,Wunderground v.1.15,2013-05-21 22:49:00,
2013-05-21 18:50:00,67.6,60.9,29.74,ENE,58,0.0,0.0,79,0.00,,,0.00,Wunderground v.1.15,2013-05-21 22:50:00,
2013-05-21 18:52:00,67.4,60.7,29.74,ENE,58,0.0,0.0,79,0.00,,,0.00,Wunderground v.1.15,2013-05-21 22:52:00,
2013-05-21 18:54:00,67.3,60.6,29.74,ENE,58,0.0,0.0,79,0.00,,,0.00,Wunderground v.1.15,2013-05-21 22:54:00,
2013-05-21 18:56:00,67.3,60.6,29.74,ENE,58,0.0,0.0,79,0.00,,,0.00,Wunderground v.1.15,2013-05-21 22:56:00,
2013-05-21 18:57:00,67.3,60.6,29.74,ENE,58,0.0,0.0,79,0.00,,,0.00,Wunderground v.1.15,2013-05-21 22:57:00,
2013-05-21 19:00:00,67.3,60.6,29.74,ENE,58,0.0,0.0,79,0.00,,,0.00,Wunderground v.1.15,2013-05-21 23:00:00,
2013-05-21 19:01:00,67.3,60.6,29.74,ENE,58,0.0,0.0,79,0.00,,,0.00,Wunderground v.1.15,2013-05-21 23:01:00,
2013-05-21 19:02:00,67.3,60.6,29.74,ENE,58,0.0,0.0,79,0.00,,,0.00,Wunderground v.1.15,2013-05-21 23:02:00,
2013-05-21 19:03:00,66.8,60.1,29.74,ENE,58,0.0,0.0,79,0.00,,,0.00,Wunderground v.1.15,2013-05-21 23:03:00,
2013-05-21 19:05:00,66.8,60.1,29.73,ENE,58,0.0,0.0,79,0.00,,,0.00,Wunderground v.1.15,2013-05-21 23:05:00,
2013-05-21 19:06:00,66.8,60.1,29.73,ENE,58,0.0,0.0,79,0.00,,,0.00,Wunderground v.1.15,2013-05-21 23:06:00,
2013-05-21 19:08:00,66.8,60.1,29.73,ENE,58,0.0,0.0,79,0.00,,,0.00,Wunderground v.1.15,2013-05-21 23:08:00,
2013-05-21 19:09:00,66.8,60.1,29.73,ENE,58,0.0,0.0,79,0.00,,,0.00,Wunderground v.1.15,2013-05-21 23:09:00,
2013-05-21 19:11:00,66.8,60.1,29.73,ENE,58,0.0,0.0,79,0.00,,,0.00,Wunderground v.1.15,2013-05-21 23:11:00,
2013-05-21 19:12:00,66.8,60.1,29.73,ENE,58,0.0,0.0,79,0.00,,,0.00,Wunderground v.1.15,2013-05-21 23:12:00,
2013-05-21 19:13:00,66.8,60.1,29.73,ENE,58,0.0,0.0,79,0.00,,,0.00,Wunderground v.1.15,2013-05-21 23:13:00,
2013-05-21 19:14:00,66.8,60.1,29.73,ENE,58,0.0,0.0,79,0.00,,,0.00,Wunderground v.1.15,2013-05-21 23:14:00,
2013-05-21 19:15:00,66.8,60.1,29.73,ENE,58,0.0,0.0,79,0.00,,,0.00,Wunderground v.1.15,2013-05-21 23:15:00,
2013-05-21 19:17:00,66.8,61.1,29.73,ENE,58,0.0,0.0,82,0.00,,,0.00,Wunderground v.1.15,2013-05-21 23:17:00,
2013-05-21 19:18:00,66.8,61.1,29.73,ENE,58,0.0,0.0,82,0.00,,,0.00,Wunderground v.1.15,2013-05-21 23:18:00,
2013-05-21 19:20:00,66.8,61.1,29.73,ENE,58,0.0,0.0,82,0.00,,,0.00,Wunderground v.1.15,2013-05-21 23:20:00,
2013-05-21 19:22:00,66.8,61.1,29.73,ENE,58,0.0,0.0,82,0.00,,,0.00,Wunderground v.1.15,2013-05-21 23:22:00,
2013-05-21 19:23:00,66.8,61.1,29.73,ENE,58,0.0,0.0,82,0.00,,,0.00,Wunderground v.1.15,2013-05-21 23:23:00,
2013-05-21 19:24:00,66.8,61.1,29.73,ENE,58,0.0,0.0,82,0.00,,,0.00,Wunderground v.1.15,2013-05-21 23:24:00,
2013-05-21 19:25:00,65.8,60.2,29.73,ENE,58,0.0,0.0,82,0.00,,,0.00,Wunderground v.1.15,2013-05-21 23:25:00,
2013-05-21 19:26:00,65.8,60.2,29.73,ENE,58,0.0,0.0,82,0.00,,,0.00,Wunderground v.1.15,2013-05-21 23:26:00,
2013-05-21 19:28:00,65.6,60.3,29.73,ENE,58,0.0,0.0,83,0.00,,,0.00,Wunderground v.1.15,2013-05-21 23:28:00,
2013-05-21 19:29:00,65.6,60.3,29.73,ENE,58,0.0,0.0,83,0.00,,,0.00,Wunderground v.1.15,2013-05-21 23:29:00,
2013-05-21 19:31:00,65.6,60.3,29.73,ENE,58,0.0,0.0,83,0.00,,,0.00,Wunderground v.1.15,2013-05-21 23:31:00,
2013-05-21 19:34:00,65.5,60.2,29.73,ENE,58,0.0,0.0,83,0.00,,,0.00,Wunderground v.1.15,2013-05-21 23:34:00,
2013-05-21 19:35:00,65.3,60.0,29.73,ENE,58,0.0,0.0,83,0.00,,,0.00,Wunderground v.1.15,2013-05-21 23:35:00,
2013-05-21 19:36:00,65.3,60.0,29.73,ENE,58,0.0,0.0,83,0.00,,,0.00,Wunderground v.1.15,2013-05-21 23:36:00,
2013-05-21 19:37:00,65.3,60.0,29.73,ENE,58,0.0,0.0,83,0.00,,,0.00,Wunderground v.1.15,2013-05-21 23:37:00,
2013-05-21 19:39:00,65.2,60.2,29.73,ENE,58,0.0,0.0,84,0.00,,,0.00,Wunderground v.1.15,2013-05-21 23:39:00,
2013-05-21 19:40:00,65.0,60.0,29.73,ENE,58,0.0,0.0,84,0.00,,,0.00,Wunderground v.1.15,2013-05-21 23:40:00,
2013-05-21 19:41:00,65.0,60.0,29.73,ENE,58,0.0,0.0,84,0.00,,,0.00,Wunderground v.1.15,2013-05-21 23:41:00,
2013-05-21 19:42:00,65.0,60.0,29.73,ENE,58,0.0,0.0,84,0.00,,,0.00,Wunderground v.1.15,2013-05-21 23:42:00,
2013-05-21 19:43:00,65.0,60.0,29.73,ENE,58,0.0,0.0,84,0.00,,,0.00,Wunderground v.1.15,2013-05-21 23:43:00,
2013-05-21 19:45:00,65.0,60.0,29.73,ENE,58,0.0,0.0,84,0.00,,,0.00,Wunderground v.1.15,2013-05-21 23:45:00,
2013-05-21 19:46:00,65.0,60.0,29.73,ENE,58,0.0,0.0,84,0.00,,,0.00,Wunderground v.1.15,2013-05-21 23:46:00,
2013-05-21 19:47:00,65.0,60.0,29.73,ENE,58,0.0,0.0,84,0.00,,,0.00,Wunderground v.1.15,2013-05-21 23:47:00,
2013-05-21 19:48:00,65.0,60.0,29.73,ENE,58,0.0,0.0,84,0.00,,,0.00,Wunderground v.1.15,2013-05-21 23:48:00,
2013-05-21 19:49:00,65.0,60.0,29.73,ENE,58,0.0,0.0,84,0.00,,,0.00,Wunderground v.1.15,2013-05-21 23:49:00,
2013-05-21 19:51:00,65.0,60.0,29.74,ENE,58,0.0,0.0,84,0.00,,,0.00,Wunderground v.1.15,2013-05-21 23:51:00,
2013-05-21 19:52:00,64.7,59.8,29.74,ENE,58,0.0,0.0,84,0.00,,,0.00,Wunderground v.1.15,2013-05-21 23:52:00,
2013-05-21 19:54:00,64.7,59.8,29.74,ENE,58,0.0,0.0,84,0.00,,,0.00,Wunderground v.1.15,2013-05-21 23:54:00,
2013-05-21 19:56:00,64.5,59.6,29.74,ENE,58,0.0,0.0,84,0.00,,,0.00,Wunderground v.1.15,2013-05-21 23:56:00,
2013-05-21 19:57:00,64.5,59.6,29.74,ENE,58,0.0,0.0,84,0.00,,,0.00,Wunderground v.1.15,2013-05-21 23:57:00,
2013-05-21 19:58:00,64.5,59.6,29.74,ENE,58,0.0,0.0,84,0.00,,,0.00,Wunderground v.1.15,2013-05-21 23:58:00,
2013-05-21 19:59:00,64.5,59.6,29.74,ENE,58,0.0,0.0,84,0.00,,,0.00,Wunderground v.1.15,2013-05-21 23:59:00,
2013-05-21 20:00:00,64.5,59.6,29.74,ENE,58,0.0,0.0,84,0.00,,,0.00,Wunderground v.1.15,2013-05-22 00:00:00,
2013-05-21 20:01:00,64.5,59.6,29.74,ENE,58,0.0,0.0,84,0.00,,,0.00,Wunderground v.1.15,2013-05-22 00:01:00,
2013-05-21 20:03:00,64.5,59.6,29.74,ENE,58,0.0,0.0,84,0.00,,,0.00,Wunderground v.1.15,2013-05-22 00:03:00,
2013-05-21 20:05:00,64.5,59.6,29.74,ENE,58,0.0,0.0,84,0.00,,,0.00,Wunderground v.1.15,2013-05-22 00:05:00,
2013-05-21 20:06:00,64.5,59.6,29.72,ENE,58,0.0,0.0,84,0.00,,,0.00,Wunderground v.1.15,2013-05-22 00:06:00,
2013-05-21 20:07:00,64.5,59.6,29.72,ENE,58,0.0,0.0,84,0.00,,,0.00,Wunderground v.1.15,2013-05-22 00:07:00,
2013-05-21 20:08:00,64.0,59.1,29.72,ENE,58,0.0,0.0,84,0.00,,,0.00,Wunderground v.1.15,2013-05-22 00:08:00,
2013-05-21 20:09:00,64.0,59.1,29.72,ENE,58,0.0,0.0,84,0.00,,,0.00,Wunderground v.1.15,2013-05-22 00:09:00,
2013-05-21 20:10:00,64.0,59.1,29.72,ENE,58,0.0,0.0,84,0.00,,,0.00,Wunderground v.1.15,2013-05-22 00:10:00,
2013-05-21 20:12:00,64.0,59.1,29.72,ENE,58,0.0,0.0,84,0.00,,,0.00,Wunderground v.1.15,2013-05-22 00:12:00,
2013-05-21 20:13:00,63.9,59.3,29.72,ENE,58,0.0,0.0,85,0.00,,,0.00,Wunderground v.1.15,2013-05-22 00:13:00,
2013-05-21 20:14:00,63.9,59.3,29.72,ENE,58,0.0,0.0,85,0.00,,,0.00,Wunderground v.1.15,2013-05-22 00:14:00,
2013-05-21 20:16:00,63.9,59.3,29.72,ENE,58,0.0,0.0,85,0.00,,,0.00,Wunderground v.1.15,2013-05-22 00:16:00,
2013-05-21 20:17:00,63.9,59.3,29.72,ENE,58,0.0,0.0,85,0.00,,,0.00,Wunderground v.1.15,2013-05-22 00:17:00,
2013-05-21 20:18:00,63.9,59.3,29.72,ENE,58,0.0,0.0,85,0.00,,,0.00,Wunderground v.1.15,2013-05-22 00:18:00,
2013-05-21 20:19:00,63.9,59.3,29.72,ENE,58,0.0,0.0,85,0.00,,,0.00,Wunderground v.1.15,2013-05-22 00:19:00,
2013-05-21 20:21:00,63.9,59.3,29.73,ENE,58,0.0,0.0,85,0.00,,,0.00,Wunderground v.1.15,2013-05-22 00:21:00,
2013-05-21 20:22:00,63.9,59.3,29.73,ENE,58,0.0,0.0,85,0.00,,,0.00,Wunderground v.1.15,2013-05-22 00:22:00,
2013-05-21 20:24:00,63.9,59.3,29.73,ENE,58,0.0,0.0,85,0.00,,,0.00,Wunderground v.1.15,2013-05-22 00:24:00,
2013-05-21 20:26:00,63.9,59.3,29.73,ENE,58,0.0,0.0,85,0.00,,,0.00,Wunderground v.1.15,2013-05-22 00:26:00,
2013-05-21 20:28:00,63.9,59.3,29.73,ENE,58,0.0,0.0,85,0.00,,,0.00,Wunderground v.1.15,2013-05-22 00:28:00,
2013-05-21 20:30:00,63.9,59.6,29.73,ENE,58,0.0,0.0,86,0.00,,,0.00,Wunderground v.1.15,2013-05-22 00:30:00,
2013-05-21 20:31:00,63.1,58.8,29.73,ENE,58,0.0,0.0,86,0.00,,,0.00,Wunderground v.1.15,2013-05-22 00:31:00,
2013-05-21 20:33:00,62.9,59.0,29.73,ENE,58,0.0,2.0,87,0.41,,,0.03,Wunderground v.1.15,2013-05-22 00:33:00,
2013-05-21 20:35:00,62.9,59.3,29.73,ENE,58,0.0,2.0,88,0.31,,,0.04,Wunderground v.1.15,2013-05-22 00:35:00,
2013-05-21 20:37:00,62.9,59.3,29.72,ENE,58,0.0,2.0,88,0.21,,,0.04,Wunderground v.1.15,2013-05-22 00:37:00,
2013-05-21 20:38:00,62.9,59.3,29.72,ENE,58,2.0,2.0,88,0.15,,,0.04,Wunderground v.1.15,2013-05-22 00:38:00,
2013-05-21 20:40:00,62.1,59.1,29.72,ENE,58,3.0,5.0,90,0.15,,,0.05,Wunderground v.1.15,2013-05-22 00:40:00,
2013-05-21 20:42:00,62.0,59.0,29.72,ENE,65,1.0,5.0,90,0.12,,,0.05,Wunderground v.1.15,2013-05-22 00:42:00,
2013-05-21 20:43:00,61.6,58.9,29.72,NE,37,5.0,11.0,91,0.10,,,0.07,Wunderground v.1.15,2013-05-22 00:43:00,
2013-05-21 20:45:00,60.9,57.3,29.72,SE,143,1.0,11.0,88,4.57,,,0.15,Wunderground v.1.15,2013-05-22 00:45:00,
2013-05-21 20:47:00,60.5,56.9,29.72,SSE,150,3.0,11.0,88,2.94,,,0.25,Wunderground v.1.15,2013-05-22 00:47:00,
2013-05-21 20:48:00,60.2,56.9,29.72,South,184,1.0,11.0,89,1.00,,,0.28,Wunderground v.1.15,2013-05-22 00:48:00,
2013-05-21 20:49:00,60.1,57.2,29.72,NNW,344,4.0,11.0,90,1.05,,,0.28,Wunderground v.1.15,2013-05-22 00:49:00,
2013-05-21 20:50:00,59.5,56.3,29.82,SSW,195,2.0,5.0,89,0.92,,,0.32,Wunderground v.1.15,2013-05-22 00:50:00,
2013-05-21 20:52:00,59.2,56.0,29.82,North,0,2.0,5.0,89,1.01,,,0.34,Wunderground v.1.15,2013-05-22 00:52:00,
2013-05-21 20:54:00,58.9,56.0,29.82,East,79,1.0,5.0,90,0.65,,,0.36,Wunderground v.1.15,2013-05-22 00:54:00,
2013-05-21 20:56:00,58.6,55.7,29.82,NNW,342,0.0,5.0,90,0.78,,,0.39,Wunderground v.1.15,2013-05-22 00:56:00,
2013-05-21 20:57:00,58.4,55.8,29.82,WNW,282,5.0,5.0,91,0.51,,,0.40,Wunderground v.1.15,2013-05-22 00:57:00,
2013-05-21 20:59:00,58.3,55.7,29.82,North,10,2.0,5.0,91,0.39,,,0.41,Wunderground v.1.15,2013-05-22 00:59:00,
2013-05-21 21:00:00,58.3,55.7,29.82,SSE,157,2.0,2.0,91,0.27,,,0.41,Wunderground v.1.15,2013-05-22 01:00:00,
2013-05-21 21:01:00,58.1,55.8,29.82,East,89,2.0,6.0,92,0.27,,,0.42,Wunderground v.1.15,2013-05-22 01:01:00,
2013-05-21 21:03:00,58.0,55.7,29.82,NE,54,2.0,6.0,92,0.22,,,0.43,Wunderground v.1.15,2013-05-22 01:03:00,
2013-05-21 21:04:00,57.8,55.5,29.82,NE,54,0.0,6.0,92,0.22,,,0.43,Wunderground v.1.15,2013-05-22 01:04:00,
2013-05-21 21:05:00,57.8,55.8,29.82,NE,54,0.0,6.0,93,0.22,,,0.43,Wunderground v.1.15,2013-05-22 01:05:00,
2013-05-21 21:08:00,57.6,55.6,29.79,WNW,284,1.0,6.0,93,0.12,,,0.43,Wunderground v.1.15,2013-05-22 01:08:00,
2013-05-21 21:09:00,57.5,55.5,29.79,NW,311,0.0,6.0,93,0.11,,,0.44,Wunderground v.1.15,2013-05-22 01:09:00,
2013-05-21 21:10:00,57.5,55.5,29.79,NNE,20,3.0,3.0,93,0.11,,,0.44,Wunderground v.1.15,2013-05-22 01:10:00,
2013-05-21 21:13:00,57.2,55.2,29.79,NE,44,0.0,3.0,93,0.16,,,0.45,Wunderground v.1.15,2013-05-22 01:13:00,
2013-05-21 21:16:00,57.2,55.2,29.79,NE,44,0.0,3.0,93,0.14,,,0.45,Wunderground v.1.15,2013-05-22 01:16:00,
2013-05-21 21:17:00,57.0,55.0,29.79,NE,44,0.0,3.0,93,0.11,,,0.45,Wunderground v.1.15,2013-05-22 01:17:00,
2013-05-21 21:18:00,57.0,55.3,29.79,NE,44,0.0,3.0,94,0.09,,,0.45,Wunderground v.1.15,2013-05-22 01:18:00,
2013-05-21 21:21:00,57.2,55.5,29.79,NE,44,0.0,0.0,94,0.09,,,0.46,Wunderground v.1.15,2013-05-22 01:21:00,
2013-05-21 21:22:00,57.2,55.5,29.79,NE,44,0.0,0.0,94,0.09,,,0.46,Wunderground v.1.15,2013-05-22 01:22:00,
2013-05-21 21:23:00,57.2,55.8,29.79,NE,44,0.0,0.0,95,0.09,,,0.46,Wunderground v.1.15,2013-05-22 01:23:00,
2013-05-21 21:25:00,57.2,55.8,29.79,NE,44,0.0,0.0,95,0.13,,,0.47,Wunderground v.1.15,2013-05-22 01:25:00,
2013-05-21 21:27:00,57.2,55.8,29.79,NE,44,0.0,0.0,95,0.13,,,0.47,Wunderground v.1.15,2013-05-22 01:27:00,
2013-05-21 21:28:00,57.2,55.8,29.79,NE,44,0.0,0.0,95,0.12,,,0.47,Wunderground v.1.15,2013-05-22 01:28:00,
2013-05-21 21:29:00,57.2,55.8,29.79,NE,44,0.0,0.0,95,0.09,,,0.47,Wunderground v.1.15,2013-05-22 01:29:00,
2013-05-21 21:32:00,57.2,55.8,29.79,NE,44,0.0,0.0,95,0.09,,,0.48,Wunderground v.1.15,2013-05-22 01:32:00,
2013-05-21 21:34:00,57.2,55.8,29.79,NE,44,0.0,0.0,95,0.15,,,0.49,Wunderground v.1.15,2013-05-22 01:34:00,
2013-05-21 21:35:00,57.2,55.8,29.79,NE,44,0.0,1.0,95,0.15,,,0.49,Wunderground v.1.15,2013-05-22 01:35:00,
2013-05-21 21:37:00,57.2,55.8,29.76,NE,44,1.0,2.0,95,0.15,,,0.49,Wunderground v.1.15,2013-05-22 01:37:00,
2013-05-21 21:38:00,57.2,55.8,29.76,NE,44,2.0,2.0,95,0.14,,,0.49,Wunderground v.1.15,2013-05-22 01:38:00,
2013-05-21 21:40:00,57.0,55.6,29.76,ENE,75,0.0,0.0,95,0.10,,,0.49,Wunderground v.1.15,2013-05-22 01:40:00,
2013-05-21 21:42:00,57.0,55.6,29.76,ENE,75,1.0,2.0,95,0.10,,,0.50,Wunderground v.1.15,2013-05-22 01:42:00,
2013-05-21 21:43:00,57.0,55.9,29.76,ENE,75,1.0,2.0,96,0.10,,,0.50,Wunderground v.1.15,2013-05-22 01:43:00,
2013-05-21 21:45:00,57.0,55.9,29.76,ENE,75,0.0,2.0,96,0.10,,,0.50,Wunderground v.1.15,2013-05-22 01:45:00,
2013-05-21 21:48:00,57.0,55.9,29.76,ENE,75,0.0,2.0,96,0.07,,,0.50,Wunderground v.1.15,2013-05-22 01:48:00,
2013-05-21 21:49:00,57.0,55.9,29.76,ENE,75,0.0,2.0,96,0.06,,,0.50,Wunderground v.1.15,2013-05-22 01:49:00,
2013-05-21 21:50:00,57.0,55.9,29.78,ENE,75,0.0,0.0,96,0.06,,,0.50,Wunderground v.1.15,2013-05-22 01:50:00,
2013-05-21 21:51:00,57.0,55.9,29.78,ENE,75,0.0,0.0,96,0.06,,,0.50,Wunderground v.1.15,2013-05-22 01:51:00,
2013-05-21 21:53:00,57.0,55.9,29.78,ENE,75,0.0,0.0,96,0.04,,,0.50,Wunderground v.1.15,2013-05-22 01:53:00,
2013-05-21 21:55:00,57.0,55.9,29.78,ENE,75,0.0,0.0,96,0.04,,,0.50,Wunderground v.1.15,2013-05-22 01:55:00,
2013-05-21 21:56:00,57.0,55.9,29.78,ENE,75,0.0,0.0,96,0.04,,,0.50,Wunderground v.1.15,2013-05-22 01:56:00,
2013-05-21 21:58:00,57.0,55.9,29.78,ENE,75,0.0,0.0,96,0.00,,,0.50,Wunderground v.1.15,2013-05-22 01:58:00,
2013-05-21 21:59:00,57.0,56.2,29.78,ENE,75,0.0,0.0,97,0.00,,,0.50,Wunderground v.1.15,2013-05-22 01:59:00,
2013-05-21 22:00:00,57.0,56.2,29.78,ENE,75,0.0,0.0,97,0.00,,,0.50,Wunderground v.1.15,2013-05-22 02:00:00,
2013-05-21 22:01:00,57.0,56.2,29.78,ENE,75,0.0,0.0,97,0.00,,,0.50,Wunderground v.1.15,2013-05-22 02:01:00,
2013-05-21 22:03:00,57.0,56.2,29.78,ENE,75,0.0,0.0,97,0.00,,,0.50,Wunderground v.1.15,2013-05-22 02:03:00,
2013-05-21 22:04:00,57.0,56.2,29.78,ENE,75,0.0,0.0,97,0.00,,,0.50,Wunderground v.1.15,2013-05-22 02:04:00,
2013-05-21 22:06:00,57.0,56.2,29.77,ENE,75,0.0,0.0,97,0.00,,,0.50,Wunderground v.1.15,2013-05-22 02:06:00,
2013-05-21 22:09:00,57.0,56.2,29.77,ENE,75,0.0,0.0,97,0.00,,,0.50,Wunderground v.1.15,2013-05-22 02:09:00,
2013-05-21 22:11:00,57.0,56.2,29.77,ENE,75,0.0,0.0,97,0.00,,,0.50,Wunderground v.1.15,2013-05-22 02:11:00,
2013-05-21 22:12:00,57.0,56.2,29.77,ENE,75,0.0,0.0,97,0.00,,,0.50,Wunderground v.1.15,2013-05-22 02:12:00,
2013-05-21 22:13:00,57.0,56.2,29.77,ENE,75,0.0,0.0,97,0.00,,,0.50,Wunderground v.1.15,2013-05-22 02:13:00,
2013-05-21 22:14:00,57.0,56.2,29.77,ENE,75,0.0,0.0,97,0.00,,,0.50,Wunderground v.1.15,2013-05-22 02:14:00,
2013-05-21 22:15:00,57.0,56.2,29.77,ENE,75,0.0,0.0,97,0.00,,,0.50,Wunderground v.1.15,2013-05-22 02:15:00,
2013-05-21 22:17:00,57.0,56.2,29.77,ENE,75,0.0,0.0,97,0.00,,,0.50,Wunderground v.1.15,2013-05-22 02:17:00,
2013-05-21 22:18:00,57.0,56.2,29.77,ENE,75,0.0,0.0,97,0.00,,,0.50,Wunderground v.1.15,2013-05-22 02:18:00,
2013-05-21 22:20:00,57.0,56.2,29.77,ENE,75,0.0,0.0,97,0.00,,,0.50,Wunderground v.1.15,2013-05-22 02:20:00,
2013-05-21 22:22:00,57.0,56.2,29.76,ENE,75,0.0,0.0,97,0.00,,,0.50,Wunderground v.1.15,2013-05-22 02:22:00,
2013-05-21 22:23:00,57.0,56.2,29.76,ENE,75,0.0,0.0,97,0.00,,,0.50,Wunderground v.1.15,2013-05-22 02:23:00,
2013-05-21 22:25:00,57.0,56.2,29.76,ENE,75,0.0,0.0,97,0.00,,,0.50,Wunderground v.1.15,2013-05-22 02:25:00,
2013-05-21 22:26:00,57.0,56.2,29.76,ENE,75,0.0,0.0,97,0.00,,,0.50,Wunderground v.1.15,2013-05-22 02:26:00,
2013-05-21 22:28:00,57.0,56.2,29.76,ENE,75,0.0,0.0,97,0.00,,,0.50,Wunderground v.1.15,2013-05-22 02:28:00,
2013-05-21 22:29:00,57.0,56.2,29.76,ENE,75,0.0,0.0,97,0.00,,,0.50,Wunderground v.1.15,2013-05-22 02:29:00,
2013-05-21 22:31:00,56.9,56.1,29.76,ENE,75,0.0,0.0,97,0.00,,,0.50,Wunderground v.1.15,2013-05-22 02:31:00,
2013-05-21 22:32:00,56.9,56.1,29.76,ENE,75,0.0,0.0,97,0.00,,,0.50,Wunderground v.1.15,2013-05-22 02:32:00,
2013-05-21 22:33:00,56.9,56.1,29.76,ENE,75,0.0,0.0,97,0.00,,,0.50,Wunderground v.1.15,2013-05-22 02:33:00,
2013-05-21 22:36:00,56.9,56.1,29.76,ENE,75,0.0,0.0,97,0.00,,,0.50,Wunderground v.1.15,2013-05-22 02:36:00,
2013-05-21 22:37:00,56.9,56.1,29.76,ENE,75,0.0,0.0,97,0.00,,,0.50,Wunderground v.1.15,2013-05-22 02:37:00,
2013-05-21 22:39:00,56.9,56.1,29.76,ENE,75,0.0,0.0,97,0.00,,,0.50,Wunderground v.1.15,2013-05-22 02:39:00,
2013-05-21 22:41:00,56.9,56.1,29.76,ENE,75,0.0,0.0,97,0.00,,,0.50,Wunderground v.1.15,2013-05-22 02:41:00,
2013-05-21 22:42:00,56.9,56.1,29.76,ENE,75,0.0,0.0,97,0.00,,,0.50,Wunderground v.1.15,2013-05-22 02:42:00,
2013-05-21 22:45:00,56.9,56.1,29.76,ENE,75,0.0,0.0,97,0.00,,,0.50,Wunderground v.1.15,2013-05-22 02:45:00,
2013-05-21 22:46:00,56.9,56.1,29.76,ENE,75,0.0,0.0,97,0.00,,,0.50,Wunderground v.1.15,2013-05-22 02:46:00,
2013-05-21 22:47:00,56.9,56.1,29.76,ENE,75,0.0,0.0,97,0.00,,,0.50,Wunderground v.1.15,2013-05-22 02:47:00,
2013-05-21 22:48:00,56.9,56.1,29.76,ENE,75,0.0,0.0,97,0.00,,,0.50,Wunderground v.1.15,2013-05-22 02:48:00,
2013-05-21 22:49:00,56.9,56.1,29.76,ENE,75,0.0,0.0,97,0.00,,,0.50,Wunderground v.1.15,2013-05-22 02:49:00,
2013-05-21 22:50:00,56.9,56.1,29.76,SSE,154,0.0,1.0,97,0.00,,,0.50,Wunderground v.1.15,2013-05-22 02:50:00,
2013-05-21 22:51:00,56.9,56.3,29.75,SSE,154,0.0,1.0,98,0.00,,,0.50,Wunderground v.1.15,2013-05-22 02:51:00,
2013-05-21 22:53:00,56.7,56.1,29.75,SSE,154,0.0,1.0,98,0.00,,,0.50,Wunderground v.1.15,2013-05-22 02:53:00,
2013-05-21 22:55:00,56.7,56.1,29.75,SSE,154,0.0,1.0,98,0.00,,,0.50,Wunderground v.1.15,2013-05-22 02:55:00,
2013-05-21 22:56:00,56.7,56.1,29.75,SSE,154,0.0,1.0,98,0.00,,,0.50,Wunderground v.1.15,2013-05-22 02:56:00,
2013-05-21 22:59:00,56.6,55.8,29.75,SSE,154,0.0,1.0,97,0.00,,,0.50,Wunderground v.1.15,2013-05-22 02:59:00,
2013-05-21 23:00:00,56.6,55.8,29.75,SSE,154,0.0,0.0,97,0.00,,,0.50,Wunderground v.1.15,2013-05-22 03:00:00,
2013-05-21 23:01:00,56.6,55.8,29.75,SSE,154,0.0,0.0,97,0.00,,,0.50,Wunderground v.1.15,2013-05-22 03:01:00,
2013-05-21 23:02:00,56.5,55.7,29.75,East,96,3.0,3.0,97,0.00,,,0.50,Wunderground v.1.15,2013-05-22 03:02:00,
2013-05-21 23:04:00,56.3,55.5,29.75,East,96,0.0,3.0,97,0.00,,,0.50,Wunderground v.1.15,2013-05-22 03:04:00,
2013-05-21 23:05:00,56.2,55.4,29.75,East,96,0.0,3.0,97,0.00,,,0.50,Wunderground v.1.15,2013-05-22 03:05:00,
2013-05-21 23:06:00,56.2,55.4,29.74,East,96,0.0,3.0,97,0.00,,,0.50,Wunderground v.1.15,2013-05-22 03:06:00,
2013-05-21 23:07:00,56.2,55.4,29.74,East,96,1.0,3.0,97,0.00,,,0.50,Wunderground v.1.15,2013-05-22 03:07:00,
2013-05-21 23:09:00,56.0,55.2,29.74,East,96,0.0,3.0,97,0.00,,,0.50,Wunderground v.1.15,2013-05-22 03:09:00,
2013-05-21 23:11:00,55.9,55.1,29.74,East,96,1.0,1.0,97,0.00,,,0.50,Wunderground v.1.15,2013-05-22 03:11:00,
2013-05-21 23:12:00,55.9,55.1,29.74,East,96,0.0,1.0,97,0.00,,,0.50,Wunderground v.1.15,2013-05-22 03:12:00,
2013-05-21 23:15:00,55.7,54.9,29.74,East,96,0.0,1.0,97,0.00,,,0.50,Wunderground v.1.15,2013-05-22 03:15:00,
2013-05-21 23:16:00,55.6,54.8,29.74,SE,134,1.0,2.0,97,0.00,,,0.50,Wunderground v.1.15,2013-05-22 03:16:00,
2013-05-21 23:17:00,55.6,54.8,29.74,SE,134,0.0,2.0,97,0.00,,,0.50,Wunderground v.1.15,2013-05-22 03:17:00,
2013-05-21 23:19:00,55.4,54.6,29.74,SE,134,1.0,2.0,97,0.00,,,0.50,Wunderground v.1.15,2013-05-22 03:19:00,
2013-05-21 23:20:00,55.3,54.5,29.74,SE,134,1.0,1.0,97,0.00,,,0.50,Wunderground v.1.15,2013-05-22 03:20:00,
2013-05-21 23:22:00,55.1,54.3,29.75,SE,134,0.0,1.0,97,0.00,,,0.50,Wunderground v.1.15,2013-05-22 03:22:00,
2013-05-21 23:24:00,55.0,54.2,29.75,SE,134,0.0,1.0,97,0.00,,,0.50,Wunderground v.1.15,2013-05-22 03:24:00,
2013-05-21 23:25:00,54.8,54.0,29.75,SE,134,0.0,1.0,97,0.00,,,0.50,Wunderground v.1.15,2013-05-22 03:25:00,
2013-05-21 23:27:00,54.8,54.0,29.75,SE,134,0.0,1.0,97,0.00,,,0.50,Wunderground v.1.15,2013-05-22 03:27:00,
2013-05-21 23:29:00,54.7,53.9,29.75,SE,134,0.0,1.0,97,0.00,,,0.50,Wunderground v.1.15,2013-05-22 03:29:00,
2013-05-21 23:30:00,54.7,53.9,29.75,SE,134,1.0,1.0,97,0.00,,,0.50,Wunderground v.1.15,2013-05-22 03:30:00,
2013-05-21 23:32:00,54.5,53.7,29.75,SE,134,0.0,1.0,97,0.00,,,0.50,Wunderground v.1.15,2013-05-22 03:32:00,
2013-05-21 23:34:00,54.5,53.7,29.75,SE,134,0.0,1.0,97,0.00,,,0.50,Wunderground v.1.15,2013-05-22 03:34:00,
2013-05-21 23:35:00,54.5,53.7,29.75,SE,134,0.0,1.0,97,0.00,,,0.50,Wunderground v.1.15,2013-05-22 03:35:00,
2013-05-21 23:36:00,54.4,53.6,29.75,SE,134,0.0,1.0,97,0.00,,,0.50,Wunderground v.1.15,2013-05-22 03:36:00,
2013-05-21 23:37:00,54.4,53.6,29.75,SE,134,0.0,1.0,97,0.00,,,0.50,Wunderground v.1.15,2013-05-22 03:37:00,
2013-05-21 23:40:00,54.4,53.6,29.75,SE,134,0.0,0.0,97,0.00,,,0.50,Wunderground v.1.15,2013-05-22 03:40:00,
2013-05-21 23:41:00,54.2,53.4,29.75,SE,134,0.0,0.0,97,0.00,,,0.50,Wunderground v.1.15,2013-05-22 03:41:00,
2013-05-21 23:43:00,54.2,53.4,29.75,SE,134,0.0,0.0,97,0.00,,,0.50,Wunderground v.1.15,2013-05-22 03:43:00,
2013-05-21 23:45:00,54.2,53.4,29.75,SE,127,0.0,2.0,97,0.00,,,0.50,Wunderground v.1.15,2013-05-22 03:45:00,
2013-05-21 23:46:00,54.1,53.3,29.75,SE,126,2.0,2.0,97,0.00,,,0.50,Wunderground v.1.15,2013-05-22 03:46:00,
2013-05-21 23:47:00,54.1,53.3,29.75,ENE,68,0.0,3.0,97,0.00,,,0.50,Wunderground v.1.15,2013-05-22 03:47:00,
2013-05-21 23:48:00,54.1,53.3,29.75,ENE,68,1.0,3.0,97,0.00,,,0.50,Wunderground v.1.15,2013-05-22 03:48:00,
2013-05-21 23:51:00,53.9,53.1,29.74,East,93,0.0,0.0,97,0.00,,,0.50,Wunderground v.1.15,2013-05-22 03:51:00,
2013-05-21 23:52:00,53.9,53.1,29.74,East,93,0.0,0.0,97,0.00,,,0.50,Wunderground v.1.15,2013-05-22 03:52:00,
2013-05-21 23:53:00,53.9,53.1,29.74,East,93,1.0,1.0,97,0.00,,,0.50,Wunderground v.1.15,2013-05-22 03:53:00,
2013-05-21 23:54:00,53.9,53.1,29.74,East,93,0.0,1.0,97,0.00,,,0.50,Wunderground v.1.15,2013-05-22 03:54:00,
2013-05-21 23:57:00,53.9,53.1,29.74,East,93,0.0,1.0,97,0.00,,,0.50,Wunderground v.1.15,2013-05-22 03:57:00,
2013-05-21 23:58:00,53.9,53.1,29.74,East,93,0.0,1.0,97,0.00,,,0.50,Wunderground v.1.15,2013-05-22 03:58:00,